M I D A S
Marine Information and Data Acquisition System
Tripno 2138 of the Zeeleeuw from 2010-04-22 08:00:00 to 2010-04-22 17:00:00
Back to CruiseResearch ActivitiesStationsMapUnderway DataData graphs

EquipmentUnitsComment
TimeDGPSUTC
LatitudeDGPSDM.mWGS84
LongitudeDGPSDM.mWGS84
TemperatureSBE03/SBE38deg celciusITS90
ConductivitySBE21S/mITS90
SalinitySBE21 Practical Salinity Units
ChlorophylAChelsea fluorimeterg/lCalibrated in Aceton
Missing or incorrect values are displayed as -999
Sea surface data collected by the RV Zeeleeuw from 2010-04-22 08:00:00 to 2010-04-22 17:00:00
                                                                                    Next 1000 lines
Time Latitude Longitude Temperature Conductivity Salinity ChlorophylA
2010-04-22 08:00:07 51°31.385 2°52.648 8.2917 3.461662 32.79307 6.382131
2010-04-22 08:00:12 51°31.386 2°52.649 8.2956 3.461557 32.792735 6.347307
2010-04-22 08:00:17 51°31.387 2°52.65 8.2944 3.461346 32.790517 6.451779
2010-04-22 08:00:22 51°31.388 2°52.651 8.2915 3.462189 32.798615 6.486603
2010-04-22 08:00:27 51°31.389 2°52.652 8.2919 3.462189 32.798615 6.486603
2010-04-22 08:00:32 51°31.389 2°52.653 8.293 3.460924 32.784533 6.347307
2010-04-22 08:00:37 51°31.39 2°52.654 8.2897 3.462294 32.799725 6.277659
2010-04-22 08:00:42 51°31.39 2°52.655 8.2919 3.461556 32.791187 6.312483
2010-04-22 08:00:47 51°31.391 2°52.656 8.2921 3.461029 32.78719 6.347307
2010-04-22 08:00:52 51°31.391 2°52.657 8.2937 3.461029 32.785642 6.208011
2010-04-22 08:00:57 51°31.391 2°52.659 8.2896 3.461029 32.785642 6.208011
2010-04-22 08:01:02 51°31.391 2°52.66 8.2914 3.46124 32.78786 6.138363
2010-04-22 08:01:07 51°31.39 2°52.661 8.2916 3.461767 32.793405 6.138363
2010-04-22 08:01:12 51°31.39 2°52.663 8.2949 3.460291 32.77788 6.173187
2010-04-22 08:01:17 51°31.39 2°52.664 8.2973 3.46124 32.78786 6.103539
2010-04-22 08:01:22 51°31.389 2°52.665 8.295 3.460924 32.784533 5.999067
2010-04-22 08:01:27 51°31.389 2°52.667 8.2949 3.460924 32.784533 5.999067
2010-04-22 08:01:32 51°31.388 2°52.668 8.2941 3.461029 32.786416 6.068715
2010-04-22 08:01:37 51°31.388 2°52.669 8.2932 3.460819 32.784198 5.999067
2010-04-22 08:01:42 51°31.387 2°52.671 8.295 3.461029 32.785642 5.894594
2010-04-22 08:01:47 51°31.386 2°52.672 8.2935 3.460924 32.78376 6.068715
2010-04-22 08:01:52 51°31.386 2°52.673 8.2938 3.46124 32.785538 5.999067
2010-04-22 08:01:57 51°31.385 2°52.674 8.2939 3.46124 32.785538 5.999067
2010-04-22 08:02:02 51°31.384 2°52.676 8.2968 3.460819 32.781877 5.929418
2010-04-22 08:02:07 51°31.383 2°52.677 8.2955 3.460081 32.772567 5.964243
2010-04-22 08:02:12 51°31.382 2°52.678 8.2972 3.460502 32.777776 6.033891
2010-04-22 08:02:17 51°31.382 2°52.679 8.2918 3.460081 32.772567 5.929418
2010-04-22 08:02:22 51°31.381 2°52.68 8.2943 3.459975 32.772232 5.929418
2010-04-22 08:02:27 51°31.38 2°52.681 8.3022 3.459975 32.772232 5.929418
2010-04-22 08:02:32 51°31.379 2°52.683 8.3023 3.461346 32.787421 5.929418
2010-04-22 08:02:37 51°31.379 2°52.684 8.3036 3.461451 32.786982 5.85977
2010-04-22 08:02:42 51°31.378 2°52.685 8.297 3.459975 32.771459 5.894594
2010-04-22 08:02:47 51°31.377 2°52.686 8.2995 3.459659 32.767359 5.85977
2010-04-22 08:02:52 51°31.376 2°52.686 8.3001 3.460924 32.781438 5.650826
2010-04-22 08:02:57 51°31.376 2°52.688 8.3026 3.460924 32.781438 5.650826
2010-04-22 08:03:02 51°31.375 2°52.688 8.2997 3.460186 32.773676 5.616002
2010-04-22 08:03:07 51°31.374 2°52.688 8.3008 3.459448 32.764368 5.546354
2010-04-22 08:03:12 51°31.374 2°52.689 8.2996 3.458921 32.755732 5.581178
2010-04-22 08:03:17 51°31.373 2°52.689 8.3004 3.459764 32.763054 5.441882
2010-04-22 08:03:22 51°31.372 2°52.69 8.2997 3.457761 32.743538 5.33741
2010-04-22 08:03:27 51°31.372 2°52.691 8.2999 3.457761 32.743538 5.33741
2010-04-22 08:03:32 51°31.371 2°52.691 8.2978 3.459132 32.757949 5.267761
2010-04-22 08:03:37 51°31.371 2°52.691 8.3019 3.457972 32.744982 5.33741
2010-04-22 08:03:42 51°31.37 2°52.691 8.297 3.459132 32.757176 5.302586
2010-04-22 08:03:47 51°31.37 2°52.691 8.2997 3.457656 32.741657 5.441882
2010-04-22 08:03:52 51°31.369 2°52.691 8.2949 3.459448 32.762048 5.476706
2010-04-22 08:03:57 51°31.369 2°52.691 8.2964 3.459448 32.762048 5.476706
2010-04-22 08:04:02 51°31.368 2°52.691 8.2964 3.459553 32.762384 5.476706
2010-04-22 08:04:07 51°31.368 2°52.69 8.3064 3.459553 32.763157 5.476706
2010-04-22 08:04:12 51°31.368 2°52.691 8.2966 3.459553 32.763157 5.546354
2010-04-22 08:04:17 51°31.368 2°52.69 8.2977 3.459764 32.764601 5.476706
2010-04-22 08:04:22 51°31.367 2°52.691 8.299 3.460291 32.770917 5.51153
2010-04-22 08:04:27 51°31.367 2°52.69 8.2978 3.460291 32.770917 5.51153
2010-04-22 08:04:32 51°31.367 2°52.691 8.2962 3.460291 32.770917 5.581178
2010-04-22 08:04:37 51°31.367 2°52.69 8.2928 3.45987 32.769576 5.51153
2010-04-22 08:04:42 51°31.366 2°52.691 8.2941 3.460081 32.770247 5.616002
2010-04-22 08:04:47 51°31.367 2°52.69 8.3011 3.460397 32.7728 5.616002
2010-04-22 08:04:52 51°31.366 2°52.691 8.2973 3.460186 32.770582 5.720474
2010-04-22 08:04:57 51°31.367 2°52.69 8.2953 3.460186 32.770582 5.720474
2010-04-22 08:05:02 51°31.366 2°52.69 8.2953 3.460502 32.775455 5.720474
2010-04-22 08:05:07 51°31.366 2°52.689 8.3027 3.460608 32.774243 5.755298
2010-04-22 08:05:12 51°31.366 2°52.689 8.2986 3.460608 32.775791 5.755298
2010-04-22 08:05:17 51°31.367 2°52.689 8.2989 3.460713 32.776899 5.790122
2010-04-22 08:05:22 51°31.366 2°52.689 8.2959 3.460713 32.777673 5.824946
2010-04-22 08:05:27 51°31.367 2°52.689 8.2961 3.460713 32.777673 5.824946
2010-04-22 08:05:32 51°31.367 2°52.689 8.2967 3.460924 32.778343 5.755298
2010-04-22 08:05:37 51°31.367 2°52.689 8.3007 3.460818 32.778782 5.824946
2010-04-22 08:05:42 51°31.367 2°52.688 8.3007 3.461662 32.787652 5.85977
2010-04-22 08:05:47 51°31.367 2°52.689 8.2982 3.460924 32.778343 5.824946
2010-04-22 08:05:52 51°31.367 2°52.688 8.2979 3.46124 32.780896 5.824946
2010-04-22 08:05:57 51°31.367 2°52.689 8.2972 3.46124 32.780896 5.824946
2010-04-22 08:06:02 51°31.368 2°52.688 8.2972 3.46124 32.781669 5.929418
2010-04-22 08:06:07 51°31.368 2°52.688 8.2961 3.461451 32.783887 5.964243
2010-04-22 08:06:12 51°31.368 2°52.688 8.3 3.461556 32.784996 6.068715
2010-04-22 08:06:17 51°31.368 2°52.688 8.2945 3.461662 32.785331 5.964243
2010-04-22 08:06:22 51°31.369 2°52.688 8.297 3.461978 32.787883 5.999067
2010-04-22 08:06:27 51°31.369 2°52.688 8.2987 3.461978 32.787883 5.999067
2010-04-22 08:06:32 51°31.369 2°52.687 8.2999 3.461451 32.780792 5.964243
2010-04-22 08:06:37 51°31.37 2°52.688 8.2999 3.461978 32.789431 5.999067
2010-04-22 08:06:42 51°31.37 2°52.687 8.3007 3.462189 32.790101 5.999067
2010-04-22 08:06:47 51°31.37 2°52.688 8.301 3.4624 32.792318 6.173187
2010-04-22 08:06:52 51°31.371 2°52.687 8.2991 3.462084 32.789766 6.312483
2010-04-22 08:06:57 51°31.371 2°52.688 8.3031 3.462084 32.789766 6.312483
2010-04-22 08:07:02 51°31.371 2°52.687 8.2991 3.462611 32.79531 6.277659
2010-04-22 08:07:07 51°31.371 2°52.688 8.3002 3.463032 32.798971 6.277659
2010-04-22 08:07:12 51°31.372 2°52.688 8.3021 3.462821 32.796753 6.208011
2010-04-22 08:07:17 51°31.372 2°52.688 8.2987 3.463032 32.797423 6.312483
2010-04-22 08:07:22 51°31.373 2°52.688 8.3031 3.463032 32.796649 6.416955
2010-04-22 08:07:27 51°31.373 2°52.688 8.3035 3.463032 32.796649 6.416955
2010-04-22 08:07:32 51°31.373 2°52.688 8.3005 3.463138 32.797757 6.556251
2010-04-22 08:07:37 51°31.374 2°52.688 8.2997 3.463349 32.799975 6.451779
2010-04-22 08:07:42 51°31.374 2°52.688 8.2976 3.463243 32.79964 6.416955
2010-04-22 08:07:47 51°31.375 2°52.688 8.2998 3.462821 32.796753 6.451779
2010-04-22 08:07:52 51°31.375 2°52.689 8.2975 3.463665 32.804075 6.451779
2010-04-22 08:07:57 51°31.375 2°52.689 8.2968 3.463665 32.804075 6.451779
2010-04-22 08:08:02 51°31.376 2°52.689 8.3073 3.463665 32.804075 6.486603
2010-04-22 08:08:07 51°31.376 2°52.689 8.3052 3.463454 32.801858 6.556251
2010-04-22 08:08:12 51°31.377 2°52.689 8.2972 3.463454 32.801084 6.591076
2010-04-22 08:08:17 51°31.377 2°52.689 8.2985 3.463876 32.806293 6.416955
2010-04-22 08:08:22 51°31.377 2°52.689 8.2961 3.463454 32.803406 6.556251
2010-04-22 08:08:27 51°31.378 2°52.689 8.2987 3.463454 32.803406 6.556251
2010-04-22 08:08:32 51°31.378 2°52.688 8.2983 3.463454 32.802632 6.521427
2010-04-22 08:08:37 51°31.378 2°52.689 8.302 3.463349 32.803071 6.486603
2010-04-22 08:08:42 51°31.379 2°52.688 8.2998 3.463454 32.801858 6.521427
2010-04-22 08:08:47 51°31.379 2°52.688 8.2977 3.463876 32.806293 6.6259
2010-04-22 08:08:52 51°31.379 2°52.687 8.302 3.463665 32.804075 6.486603
2010-04-22 08:08:57 51°31.379 2°52.686 8.3003 3.463665 32.804075 6.486603
2010-04-22 08:09:02 51°31.379 2°52.686 8.3021 3.463243 32.79964 6.416955
2010-04-22 08:09:07 51°31.379 2°52.685 8.2997 3.463454 32.803406 6.382131
2010-04-22 08:09:12 51°31.379 2°52.685 8.2996 3.463243 32.800414 6.242835
2010-04-22 08:09:17 51°31.379 2°52.685 8.2983 3.462294 32.791209 6.277659
2010-04-22 08:09:22 51°31.38 2°52.684 8.3023 3.461978 32.787883 6.173187
2010-04-22 08:09:27 51°31.379 2°52.684 8.3035 3.461978 32.787883 6.173187
2010-04-22 08:09:32 51°31.38 2°52.683 8.3034 3.461873 32.786001 6.173187
2010-04-22 08:09:37 51°31.38 2°52.682 8.3033 3.460713 32.773032 6.068715
2010-04-22 08:09:42 51°31.38 2°52.682 8.304 3.461029 32.776358 6.103539
2010-04-22 08:09:47 51°31.38 2°52.681 8.3025 3.460502 32.770814 6.068715
2010-04-22 08:09:52 51°31.38 2°52.68 8.298 3.462083 32.788218 6.068715
2010-04-22 08:09:57 51°31.38 2°52.68 8.3016 3.462083 32.788218 6.068715
2010-04-22 08:10:02 51°31.38 2°52.679 8.3004 3.461556 32.782675 5.999067
2010-04-22 08:10:07 51°31.38 2°52.679 8.3001 3.460818 32.77414 5.999067
2010-04-22 08:10:12 51°31.38 2°52.678 8.2988 3.461873 32.782906 5.790122
2010-04-22 08:10:17 51°31.38 2°52.678 8.3009 3.461451 32.779245 5.790122
2010-04-22 08:10:22 51°31.38 2°52.677 8.3028 3.460608 32.77115 5.720474
2010-04-22 08:10:27 51°31.38 2°52.676 8.3014 3.460608 32.77115 5.720474
2010-04-22 08:10:32 51°31.38 2°52.676 8.3028 3.458605 32.750088 5.650826
2010-04-22 08:10:37 51°31.381 2°52.675 8.3058 3.460924 32.776022 5.616002
2010-04-22 08:10:42 51°31.38 2°52.675 8.3012 3.460818 32.77414 5.616002
2010-04-22 08:10:47 51°31.381 2°52.674 8.3032 3.460502 32.771588 5.650826
2010-04-22 08:10:52 51°31.38 2°52.674 8.3049 3.460186 32.768262 5.650826
2010-04-22 08:10:57 51°31.381 2°52.673 8.3065 3.460186 32.768262 5.650826
2010-04-22 08:11:02 51°31.38 2°52.674 8.3061 3.460291 32.769371 5.790122
2010-04-22 08:11:07 51°31.381 2°52.673 8.3087 3.459448 32.759729 5.68565
2010-04-22 08:11:12 51°31.381 2°52.673 8.3041 3.460291 32.767824 5.581178
2010-04-22 08:11:17 51°31.381 2°52.672 8.3055 3.45987 32.761843 5.68565
2010-04-22 08:11:22 51°31.381 2°52.672 8.3059 3.45871 32.74965 5.68565
2010-04-22 08:11:27 51°31.381 2°52.672 8.3066 3.45871 32.74965 5.68565
2010-04-22 08:11:32 51°31.381 2°52.671 8.3065 3.45987 32.761843 5.616002
2010-04-22 08:11:37 51°31.381 2°52.671 8.3089 3.45987 32.760297 5.546354
2010-04-22 08:11:42 51°31.381 2°52.671 8.3087 3.459764 32.757643 5.720474
2010-04-22 08:11:47 51°31.382 2°52.67 8.3074 3.458394 32.744007 5.68565
2010-04-22 08:11:52 51°31.381 2°52.67 8.3107 3.460291 32.763958 5.581178
2010-04-22 08:11:57 51°31.382 2°52.67 8.3073 3.460291 32.763958 5.581178
2010-04-22 08:12:02 51°31.381 2°52.67 8.3079 3.45987 32.759524 5.51153
2010-04-22 08:12:07 51°31.382 2°52.67 8.3051 3.457867 32.737693 5.581178
2010-04-22 08:12:12 51°31.382 2°52.67 8.3048 3.458815 32.746895 5.546354
2010-04-22 08:12:17 51°31.382 2°52.669 8.3057 3.459764 32.75687 5.51153
2010-04-22 08:12:22 51°31.382 2°52.669 8.3021 3.458394 32.740145 5.407058
2010-04-22 08:12:27 51°31.382 2°52.669 8.3072 3.458394 32.740145 5.407058
2010-04-22 08:12:32 51°31.382 2°52.669 8.3063 3.459764 32.755324 5.476706
2010-04-22 08:12:37 51°31.382 2°52.669 8.3088 3.459026 32.749112 5.441882
2010-04-22 08:12:42 51°31.382 2°52.669 8.3087 3.458183 32.738701 5.616002
2010-04-22 08:12:47 51°31.382 2°52.669 8.3046 3.458394 32.743234 5.476706
2010-04-22 08:12:52 51°31.382 2°52.668 8.3044 3.459764 32.758416 5.476706
2010-04-22 08:12:57 51°31.382 2°52.669 8.3064 3.459764 32.758416 5.476706
2010-04-22 08:13:02 51°31.382 2°52.668 8.307 3.458077 32.740682 5.476706
2010-04-22 08:13:07 51°31.382 2°52.668 8.31 3.458394 32.744007 5.441882
2010-04-22 08:13:12 51°31.382 2°52.668 8.3095 3.459132 32.752538 5.267761
2010-04-22 08:13:17 51°31.383 2°52.668 8.3057 3.458921 32.748776 5.372234
2010-04-22 08:13:22 51°31.383 2°52.668 8.3044 3.458921 32.749549 5.407058
2010-04-22 08:13:27 51°31.383 2°52.668 8.3066 3.458921 32.749549 5.407058
2010-04-22 08:13:32 51°31.383 2°52.668 8.3066 3.458394 32.743234 5.407058
2010-04-22 08:13:37 51°31.383 2°52.668 8.3093 3.458077 32.739137 5.33741
2010-04-22 08:13:42 51°31.383 2°52.668 8.313 3.458499 32.744343 5.372234
2010-04-22 08:13:47 51°31.383 2°52.668 8.3044 3.458815 32.746895 5.476706
2010-04-22 08:13:52 51°31.383 2°52.668 8.3069 3.458815 32.746895 5.441882
2010-04-22 08:13:57 51°31.383 2°52.668 8.3084 3.458815 32.746895 5.441882
2010-04-22 08:14:02 51°31.383 2°52.668 8.3098 3.459026 32.749884 5.581178
2010-04-22 08:14:07 51°31.383 2°52.668 8.3057 3.459132 32.751766 5.581178
2010-04-22 08:14:12 51°31.383 2°52.668 8.3053 3.459237 32.752874 5.616002
2010-04-22 08:14:17 51°31.383 2°52.669 8.3029 3.459659 32.754216 5.51153
2010-04-22 08:14:22 51°31.383 2°52.669 8.3048 3.45987 32.757206 5.790122
2010-04-22 08:14:27 51°31.383 2°52.669 8.3033 3.45987 32.757206 5.790122
2010-04-22 08:14:32 51°31.383 2°52.669 8.3054 3.459975 32.759087 5.790122
2010-04-22 08:14:37 51°31.383 2°52.669 8.3052 3.459342 32.754755 5.824946
2010-04-22 08:14:42 51°31.383 2°52.67 8.3048 3.460607 32.765737 5.85977
2010-04-22 08:14:47 51°31.383 2°52.669 8.3047 3.460818 32.767954 5.894594
2010-04-22 08:14:52 51°31.383 2°52.669 8.3047 3.46124 32.774708 6.033891
2010-04-22 08:14:57 51°31.383 2°52.669 8.2988 3.46124 32.774708 6.033891
2010-04-22 08:15:02 51°31.383 2°52.669 8.3015 3.461135 32.772826 6.138363
2010-04-22 08:15:07 51°31.383 2°52.669 8.3116 3.461029 32.773264 6.068715
2010-04-22 08:15:12 51°31.382 2°52.669 8.3053 3.460924 32.772155 6.068715
2010-04-22 08:15:17 51°31.382 2°52.669 8.303 3.461029 32.773264 6.208011
2010-04-22 08:15:22 51°31.382 2°52.669 8.2976 3.461767 32.78025 6.138363
2010-04-22 08:15:27 51°31.382 2°52.669 8.2966 3.461767 32.78025 6.138363
2010-04-22 08:15:32 51°31.382 2°52.669 8.2953 3.460713 32.769165 6.312483
2010-04-22 08:15:37 51°31.382 2°52.669 8.2935 3.462611 32.789892 6.416955
2010-04-22 08:15:42 51°31.382 2°52.669 8.2969 3.462611 32.789119 6.556251
2010-04-22 08:15:47 51°31.381 2°52.669 8.2966 3.463138 32.796209 6.591076
2010-04-22 08:15:52 51°31.381 2°52.669 8.2993 3.463454 32.798762 6.556251
2010-04-22 08:15:57 51°31.381 2°52.669 8.2993 3.463454 32.798762 6.556251
2010-04-22 08:16:02 51°31.381 2°52.669 8.2991 3.463559 32.801418 6.695548
2010-04-22 08:16:07 51°31.381 2°52.669 8.3018 3.463032 32.797423 6.660724
2010-04-22 08:16:12 51°31.381 2°52.669 8.3005 3.464192 32.811942 6.695548
2010-04-22 08:16:17 51°31.381 2°52.67 8.298 3.464192 32.812717 6.695548
2010-04-22 08:16:22 51°31.381 2°52.67 8.2958 3.463981 32.811273 6.80002
2010-04-22 08:16:27 51°31.381 2°52.67 8.2964 3.463981 32.811273 6.80002
2010-04-22 08:16:32 51°31.381 2°52.67 8.2947 3.464614 32.817152 6.834844
2010-04-22 08:16:37 51°31.381 2°52.67 8.2954 3.464614 32.816378 6.80002
2010-04-22 08:16:42 51°31.381 2°52.67 8.2936 3.465035 32.820039 6.765196
2010-04-22 08:16:47 51°31.381 2°52.67 8.2935 3.465352 32.823365 6.904492
2010-04-22 08:16:52 51°31.381 2°52.67 8.2957 3.465352 32.821816 6.97414
2010-04-22 08:16:57 51°31.381 2°52.67 8.296 3.465352 32.821816 6.97414
2010-04-22 08:17:02 51°31.381 2°52.67 8.2983 3.465352 32.82414 6.904492
2010-04-22 08:17:07 51°31.381 2°52.671 8.3002 3.464087 32.810833 6.97414
2010-04-22 08:17:12 51°31.381 2°52.67 8.2946 3.464297 32.815375 7.008964
2010-04-22 08:17:17 51°31.381 2°52.671 8.2968 3.465352 32.827239 7.043788
2010-04-22 08:17:22 51°31.381 2°52.669 8.3001 3.465879 32.831235 7.043788
2010-04-22 08:17:27 51°31.381 2°52.67 8.2984 3.465879 32.831235 7.043788
2010-04-22 08:17:32 51°31.381 2°52.67 8.3024 3.46609 32.835003 7.008964
2010-04-22 08:17:37 51°31.381 2°52.67 8.2998 3.466195 32.835337 6.904492
2010-04-22 08:17:42 51°31.381 2°52.67 8.3039 3.465984 32.832344 6.939316
2010-04-22 08:17:47 51°31.381 2°52.67 8.3017 3.464825 32.820145 7.113436
2010-04-22 08:17:52 51°31.382 2°52.67 8.3057 3.465984 32.831569 7.183084
2010-04-22 08:17:57 51°31.382 2°52.67 8.2976 3.465984 32.831569 7.183084
2010-04-22 08:18:02 51°31.382 2°52.67 8.3043 3.466195 32.833787 6.97414
2010-04-22 08:18:07 51°31.382 2°52.67 8.3035 3.466195 32.833012 6.939316
2010-04-22 08:18:12 51°31.382 2°52.67 8.3042 3.464403 32.813386 6.80002
2010-04-22 08:18:17 51°31.383 2°52.67 8.3027 3.465352 32.824915 6.765196
2010-04-22 08:18:22 51°31.382 2°52.67 8.3008 3.46377 32.805958 6.6259
2010-04-22 08:18:27 51°31.383 2°52.67 8.3012 3.46377 32.805958 6.6259
2010-04-22 08:18:32 51°31.383 2°52.67 8.3024 3.464719 32.815938 6.591076
2010-04-22 08:18:37 51°31.383 2°52.67 8.304 3.463981 32.806627 6.556251
2010-04-22 08:18:42 51°31.383 2°52.671 8.302 3.462083 32.78667 6.416955
2010-04-22 08:18:47 51°31.383 2°52.671 8.3046 3.463454 32.80031 6.382131
2010-04-22 08:18:52 51°31.383 2°52.671 8.3056 3.462505 32.790331 6.242835
2010-04-22 08:18:57 51°31.383 2°52.672 8.3065 3.462505 32.790331 6.242835
2010-04-22 08:19:02 51°31.383 2°52.671 8.3061 3.463454 32.799536 6.208011
2010-04-22 08:19:07 51°31.383 2°52.672 8.3032 3.462505 32.790331 6.173187
2010-04-22 08:19:12 51°31.383 2°52.671 8.3042 3.462083 32.785123 6.103539
2010-04-22 08:19:17 51°31.383 2°52.672 8.3054 3.462083 32.785123 6.138363
2010-04-22 08:19:22 51°31.383 2°52.672 8.3059 3.461662 32.780689 6.173187
2010-04-22 08:19:27 51°31.383 2°52.672 8.3064 3.461662 32.780689 6.173187
2010-04-22 08:19:32 51°31.383 2°52.672 8.3052 3.461135 32.774372 6.138363
2010-04-22 08:19:37 51°31.383 2°52.672 8.3054 3.461978 32.782467 6.033891
2010-04-22 08:19:42 51°31.383 2°52.672 8.3095 3.459132 32.751766 6.033891
2010-04-22 08:19:47 51°31.383 2°52.672 8.3084 3.459553 32.756972 6.033891
2010-04-22 08:19:52 51°31.383 2°52.672 8.3095 3.461345 32.775816 5.929418
2010-04-22 08:19:57 51°31.383 2°52.672 8.3117 3.461345 32.775816 5.929418
2010-04-22 08:20:02 51°31.383 2°52.672 8.3117 3.45987 32.760297 6.033891
2010-04-22 08:20:07 51°31.382 2°52.672 8.3123 3.459237 32.752874 5.85977
2010-04-22 08:20:12 51°31.382 2°52.672 8.3126 3.458288 32.743671 5.824946
2010-04-22 08:20:17 51°31.383 2°52.672 8.3123 3.458183 32.740245 5.85977
2010-04-22 08:20:22 51°31.382 2°52.672 8.3089 3.459132 32.75022 5.85977
2010-04-22 08:20:27 51°31.382 2°52.673 8.313 3.459132 32.75022 5.85977
2010-04-22 08:20:32 51°31.382 2°52.672 8.3128 3.458394 32.740917 5.85977
2010-04-22 08:20:37 51°31.383 2°52.672 8.3112 3.457656 32.732387 5.790122
2010-04-22 08:20:42 51°31.382 2°52.672 8.3123 3.458077 32.736048 5.790122
2010-04-22 08:20:47 51°31.382 2°52.672 8.3105 3.457445 32.729399 5.85977
2010-04-22 08:20:52 51°31.382 2°52.672 8.3127 3.457972 32.733395 5.894594
2010-04-22 08:20:57 51°31.382 2°52.672 8.3146 3.457972 32.733395 5.894594
2010-04-22 08:21:02 51°31.382 2°52.672 8.3141 3.459237 32.747465 5.824946
2010-04-22 08:21:07 51°31.382 2°52.672 8.3124 3.459553 32.75079 5.824946
2010-04-22 08:21:12 51°31.382 2°52.672 8.3124 3.459869 32.754114 5.824946
2010-04-22 08:21:17 51°31.382 2°52.671 8.3112 3.456918 32.723858 5.790122
2010-04-22 08:21:22 51°31.382 2°52.672 8.3133 3.459026 32.746021 5.790122
2010-04-22 08:21:27 51°31.382 2°52.671 8.3153 3.459026 32.746021 5.790122
2010-04-22 08:21:32 51°31.382 2°52.671 8.3144 3.456707 32.720098 5.790122
2010-04-22 08:21:37 51°31.381 2°52.671 8.3139 3.457023 32.724194 5.824946
2010-04-22 08:21:42 51°31.381 2°52.671 8.3153 3.459659 32.750353 5.755298
2010-04-22 08:21:47 51°31.381 2°52.671 8.3134 3.459342 32.747028 5.824946
2010-04-22 08:21:52 51°31.382 2°52.671 8.3175 3.459026 32.745249 5.720474
2010-04-22 08:21:57 51°31.381 2°52.672 8.3146 3.459026 32.745249 5.720474
2010-04-22 08:22:02 51°31.382 2°52.671 8.314 3.459975 32.75445 5.720474
2010-04-22 08:22:07 51°31.381 2°52.671 8.3125 3.459342 32.747801 5.720474
2010-04-22 08:22:12 51°31.382 2°52.671 8.3119 3.459132 32.74404 5.894594
2010-04-22 08:22:17 51°31.381 2°52.671 8.3134 3.459659 32.74958 5.824946
2010-04-22 08:22:22 51°31.382 2°52.671 8.3178 3.459869 32.751797 5.85977
2010-04-22 08:22:27 51°31.381 2°52.672 8.3185 3.459869 32.751797 5.85977
2010-04-22 08:22:32 51°31.382 2°52.671 8.315 3.459764 32.749143 5.894594
2010-04-22 08:22:37 51°31.381 2°52.671 8.3138 3.46008 32.752468 5.894594
2010-04-22 08:22:42 51°31.382 2°52.671 8.3167 3.459975 32.752132 5.85977
2010-04-22 08:22:47 51°31.381 2°52.672 8.3145 3.460186 32.755121 5.790122
2010-04-22 08:22:52 51°31.382 2°52.671 8.3145 3.46008 32.754786 5.894594
2010-04-22 08:22:57 51°31.381 2°52.672 8.3142 3.46008 32.754786 5.894594
2010-04-22 08:23:02 51°31.382 2°52.672 8.3148 3.459975 32.752132 5.894594
2010-04-22 08:23:07 51°31.382 2°52.672 8.3144 3.460291 32.754684 5.894594
2010-04-22 08:23:12 51°31.381 2°52.672 8.3147 3.46008 32.752468 5.894594
2010-04-22 08:23:17 51°31.381 2°52.672 8.3156 3.460397 32.755019 5.964243
2010-04-22 08:23:22 51°31.381 2°52.672 8.3151 3.460607 32.758008 5.929418
2010-04-22 08:23:27 51°31.381 2°52.672 8.3181 3.460607 32.758008 5.929418
2010-04-22 08:23:32 51°31.381 2°52.673 8.3182 3.460291 32.755457 5.999067
2010-04-22 08:23:37 51°31.381 2°52.672 8.3192 3.459975 32.75136 6.033891
2010-04-22 08:23:42 51°31.381 2°52.673 8.3163 3.460607 32.758008 6.208011
2010-04-22 08:23:47 51°31.381 2°52.672 8.3135 3.460607 32.758008 6.173187
2010-04-22 08:23:52 51°31.381 2°52.673 8.3162 3.461451 32.766101 6.173187
2010-04-22 08:23:57 51°31.381 2°52.672 8.3166 3.461451 32.766101 6.173187
2010-04-22 08:24:02 51°31.381 2°52.673 8.3123 3.46124 32.764657 6.208011
2010-04-22 08:24:07 51°31.381 2°52.673 8.3139 3.46124 32.763112 6.173187
2010-04-22 08:24:12 51°31.381 2°52.673 8.3142 3.461345 32.76422 6.103539
2010-04-22 08:24:17 51°31.381 2°52.673 8.3156 3.461451 32.766101 6.277659
2010-04-22 08:24:22 51°31.381 2°52.673 8.3171 3.461767 32.769425 6.138363
2010-04-22 08:24:27 51°31.381 2°52.673 8.3173 3.461767 32.769425 6.138363
2010-04-22 08:24:32 51°31.381 2°52.673 8.3186 3.461556 32.767982 6.347307
2010-04-22 08:24:37 51°31.381 2°52.673 8.3156 3.461556 32.767209 6.173187
2010-04-22 08:24:42 51°31.382 2°52.672 8.3207 3.461556 32.768755 6.138363
2010-04-22 08:24:47 51°31.381 2°52.673 8.3172 3.461135 32.763549 6.103539
2010-04-22 08:24:52 51°31.382 2°52.673 8.3166 3.461556 32.768755 6.242835
2010-04-22 08:24:57 51°31.381 2°52.674 8.3166 3.461556 32.768755 6.242835
2010-04-22 08:25:02 51°31.382 2°52.673 8.3172 3.461134 32.762003 6.242835
2010-04-22 08:25:07 51°31.381 2°52.673 8.3177 3.461451 32.766101 6.173187
2010-04-22 08:25:12 51°31.382 2°52.673 8.3192 3.461556 32.767209 6.103539
2010-04-22 08:25:17 51°31.382 2°52.674 8.319 3.461029 32.761668 6.103539
2010-04-22 08:25:22 51°31.382 2°52.673 8.3173 3.461662 32.766771 5.999067
2010-04-22 08:25:27 51°31.382 2°52.674 8.3166 3.461662 32.766771 5.999067
2010-04-22 08:25:32 51°31.382 2°52.674 8.3185 3.461345 32.76422 6.138363
2010-04-22 08:25:37 51°31.381 2°52.674 8.3154 3.460502 32.756127 6.173187
2010-04-22 08:25:42 51°31.381 2°52.674 8.316 3.46124 32.763112 5.999067
2010-04-22 08:25:47 51°31.381 2°52.674 8.3174 3.461345 32.764992 6.173187
2010-04-22 08:25:52 51°31.381 2°52.674 8.3181 3.460502 32.754582 6.138363
2010-04-22 08:25:57 51°31.381 2°52.674 8.3213 3.460502 32.754582 6.138363
2010-04-22 08:26:02 51°31.381 2°52.674 8.32 3.460818 32.758679 6.173187
2010-04-22 08:26:07 51°31.381 2°52.674 8.3187 3.461872 32.768987 6.312483
2010-04-22 08:26:12 51°31.381 2°52.675 8.3204 3.461872 32.76976 6.138363
2010-04-22 08:26:17 51°31.382 2°52.674 8.3191 3.461872 32.76976 6.138363
2010-04-22 08:26:22 51°31.381 2°52.675 8.3184 3.462083 32.771977 6.103539
2010-04-22 08:26:27 51°31.381 2°52.675 8.3174 3.462083 32.771977 6.103539
2010-04-22 08:26:32 51°31.382 2°52.675 8.3191 3.461978 32.770868 6.208011
2010-04-22 08:26:37 51°31.382 2°52.675 8.3213 3.461978 32.770096 6.208011
2010-04-22 08:26:42 51°31.382 2°52.675 8.3177 3.461978 32.769323 6.208011
2010-04-22 08:26:47 51°31.382 2°52.675 8.321 3.461872 32.768215 6.173187
2010-04-22 08:26:52 51°31.382 2°52.675 8.3192 3.461345 32.761901 6.242835
2010-04-22 08:26:57 51°31.382 2°52.676 8.32 3.461345 32.761901 6.242835
2010-04-22 08:27:02 51°31.382 2°52.675 8.3241 3.461872 32.768215 6.103539
2010-04-22 08:27:07 51°31.382 2°52.676 8.3234 3.46008 32.748605 6.138363
2010-04-22 08:27:12 51°31.382 2°52.676 8.3244 3.459975 32.74827 5.999067
2010-04-22 08:27:17 51°31.382 2°52.676 8.3223 3.461662 32.765998 6.068715
2010-04-22 08:27:22 51°31.382 2°52.676 8.3212 3.4624 32.773755 6.138363
2010-04-22 08:27:27 51°31.382 2°52.676 8.3216 3.4624 32.773755 6.138363
2010-04-22 08:27:32 51°31.382 2°52.676 8.3242 3.461345 32.761901 6.033891
2010-04-22 08:27:37 51°31.382 2°52.676 8.3211 3.460818 32.757134 6.068715
2010-04-22 08:27:42 51°31.381 2°52.677 8.323 3.460607 32.7526 6.068715
2010-04-22 08:27:47 51°31.382 2°52.676 8.3278 3.460818 32.754816 6.033891
2010-04-22 08:27:52 51°31.381 2°52.677 8.3253 3.461662 32.76368 5.999067
2010-04-22 08:27:57 51°31.382 2°52.676 8.3241 3.461662 32.76368 5.999067
2010-04-22 08:28:02 51°31.382 2°52.677 8.3221 3.461556 32.762572 5.999067
2010-04-22 08:28:07 51°31.382 2°52.676 8.3215 3.461662 32.762907 5.964243
2010-04-22 08:28:12 51°31.381 2°52.677 8.3206 3.461345 32.760356 6.033891
2010-04-22 08:28:17 51°31.382 2°52.676 8.3239 3.461029 32.757032 5.894594
2010-04-22 08:28:22 51°31.381 2°52.677 8.3224 3.46008 32.744744 5.964243
2010-04-22 08:28:27 51°31.382 2°52.676 8.3224 3.46008 32.744744 5.964243
2010-04-22 08:28:32 51°31.381 2°52.677 8.3228 3.461451 32.759146 5.894594
2010-04-22 08:28:37 51°31.381 2°52.677 8.3199 3.461029 32.755487 5.929418
2010-04-22 08:28:42 51°31.381 2°52.677 8.3215 3.460396 32.749612 5.929418
2010-04-22 08:28:47 51°31.381 2°52.677 8.3221 3.460818 32.754816 6.068715
2010-04-22 08:28:52 51°31.381 2°52.677 8.3215 3.460713 32.753708 5.999067
2010-04-22 08:28:57 51°31.381 2°52.677 8.3239 3.460713 32.753708 5.999067
2010-04-22 08:29:02 51°31.381 2°52.677 8.3238 3.460924 32.756697 5.929418
2010-04-22 08:29:07 51°31.381 2°52.677 8.3213 3.46124 32.759248 5.929418
2010-04-22 08:29:12 51°31.381 2°52.677 8.3236 3.461134 32.757368 5.894594
2010-04-22 08:29:17 51°31.38 2°52.678 8.3216 3.460291 32.749276 5.929418
2010-04-22 08:29:22 51°31.381 2°52.677 8.325 3.461029 32.757805 6.173187
2010-04-22 08:29:27 51°31.38 2°52.677 8.3236 3.461029 32.757805 6.173187
2010-04-22 08:29:32 51°31.38 2°52.677 8.3214 3.460607 32.7526 6.103539
2010-04-22 08:29:37 51°31.38 2°52.678 8.324 3.46124 32.758476 6.138363
2010-04-22 08:29:42 51°31.38 2°52.678 8.3218 3.46124 32.759248 6.138363
2010-04-22 08:29:47 51°31.38 2°52.678 8.3234 3.46124 32.758476 6.242835
2010-04-22 08:29:52 51°31.38 2°52.678 8.3236 3.459764 32.743737 6.208011
2010-04-22 08:29:57 51°31.38 2°52.678 8.3235 3.459764 32.743737 6.208011
2010-04-22 08:30:02 51°31.38 2°52.678 8.3236 3.461767 32.764015 6.242835
2010-04-22 08:30:07 51°31.38 2°52.678 8.3211 3.460607 32.751056 6.242835
2010-04-22 08:30:12 51°31.379 2°52.679 8.3226 3.461872 32.765896 6.068715
2010-04-22 08:30:17 51°31.379 2°52.679 8.3208 3.459869 32.744845 6.208011
2010-04-22 08:30:22 51°31.379 2°52.679 8.3233 3.461872 32.765123 6.033891
2010-04-22 08:30:27 51°31.379 2°52.678 8.3264 3.461872 32.765123 6.033891
2010-04-22 08:30:32 51°31.379 2°52.679 8.3254 3.461872 32.765896 6.138363
2010-04-22 08:30:37 51°31.379 2°52.679 8.3253 3.461029 32.755487 6.103539
2010-04-22 08:30:42 51°31.379 2°52.679 8.328 3.459342 32.738533 6.068715
2010-04-22 08:30:47 51°31.379 2°52.679 8.3211 3.461662 32.762907 6.068715
2010-04-22 08:30:52 51°31.379 2°52.679 8.3236 3.460396 32.750384 6.138363
2010-04-22 08:30:57 51°31.378 2°52.679 8.3244 3.460396 32.750384 6.138363
2010-04-22 08:31:02 51°31.378 2°52.68 8.3292 3.459237 32.737425 6.277659
2010-04-22 08:31:07 51°31.378 2°52.679 8.3261 3.461872 32.764351 6.277659
2010-04-22 08:31:12 51°31.378 2°52.68 8.326 3.461662 32.761362 6.277659
2010-04-22 08:31:17 51°31.378 2°52.679 8.326 3.461978 32.764686 6.103539
2010-04-22 08:31:22 51°31.378 2°52.68 8.3261 3.461662 32.761362 6.033891
2010-04-22 08:31:27 51°31.378 2°52.68 8.3256 3.461662 32.761362 6.033891
2010-04-22 08:31:32 51°31.377 2°52.68 8.3278 3.462189 32.766129 6.068715
2010-04-22 08:31:37 51°31.377 2°52.68 8.3303 3.461134 32.756595 5.894594
2010-04-22 08:31:42 51°31.377 2°52.68 8.328 3.46124 32.756158 5.894594
2010-04-22 08:31:47 51°31.377 2°52.68 8.3272 3.459658 32.738768 5.824946
2010-04-22 08:31:52 51°31.377 2°52.68 8.329 3.459764 32.739876 5.790122
2010-04-22 08:31:57 51°31.377 2°52.68 8.3289 3.459764 32.739876 5.790122
2010-04-22 08:32:02 51°31.377 2°52.68 8.3285 3.460924 32.75129 5.790122
2010-04-22 08:32:07 51°31.377 2°52.681 8.3319 3.460713 32.748302 5.720474
2010-04-22 08:32:12 51°31.377 2°52.681 8.3302 3.461345 32.754949 5.68565
2010-04-22 08:32:17 51°31.377 2°52.681 8.3286 3.461345 32.754949 5.546354
2010-04-22 08:32:22 51°31.376 2°52.681 8.3306 3.460607 32.747194 5.581178
2010-04-22 08:32:27 51°31.376 2°52.68 8.3293 3.460607 32.747194 5.581178
2010-04-22 08:32:32 51°31.376 2°52.681 8.3288 3.457866 32.718394 5.51153
2010-04-22 08:32:37 51°31.376 2°52.681 8.3292 3.457445 32.713192 5.267761
2010-04-22 08:32:42 51°31.376 2°52.681 8.3286 3.457339 32.712856 5.128465
2010-04-22 08:32:47 51°31.376 2°52.681 8.3312 3.457128 32.708327 5.302586
2010-04-22 08:32:52 51°31.376 2°52.681 8.3335 3.456812 32.706547 5.128465
2010-04-22 08:32:57 51°31.375 2°52.681 8.3309 3.456812 32.706547 5.128465
2010-04-22 08:33:02 51°31.376 2°52.68 8.3338 3.459764 32.736788 5.163289
2010-04-22 08:33:07 51°31.375 2°52.681 8.3355 3.456917 32.706112 5.198113
2010-04-22 08:33:12 51°31.375 2°52.681 8.3344 3.459658 32.734909 5.163289
2010-04-22 08:33:17 51°31.376 2°52.68 8.337 3.458604 32.724604 5.232937
2010-04-22 08:33:22 51°31.375 2°52.681 8.3366 3.458393 32.722389 5.372234
2010-04-22 08:33:27 51°31.376 2°52.68 8.339 3.458393 32.722389 5.372234
2010-04-22 08:33:32 51°31.375 2°52.68 8.3311 3.457655 32.712322 5.302586
2010-04-22 08:33:37 51°31.376 2°52.68 8.3329 3.456707 32.701584 5.302586
2010-04-22 08:33:42 51°31.376 2°52.68 8.3316 3.460186 32.738903 5.302586
2010-04-22 08:33:47 51°31.376 2°52.681 8.333 3.459131 32.727056 5.302586
2010-04-22 08:33:52 51°31.376 2°52.681 8.3326 3.458288 32.716653 5.302586
2010-04-22 08:33:57 51°31.376 2°52.68 8.3322 3.458288 32.716653 5.302586
2010-04-22 08:34:02 51°31.376 2°52.68 8.3293 3.459975 32.733601 5.372234
2010-04-22 08:34:07 51°31.376 2°52.68 8.3324 3.459764 32.729843 5.441882
2010-04-22 08:34:12 51°31.376 2°52.68 8.3293 3.46008 32.73548 5.407058
2010-04-22 08:34:17 51°31.376 2°52.68 8.3282 3.460818 32.744777 5.476706
2010-04-22 08:34:22 51°31.377 2°52.68 8.3278 3.460923 32.745885 5.581178
2010-04-22 08:34:27 51°31.377 2°52.68 8.3273 3.460923 32.745885 5.581178
2010-04-22 08:34:32 51°31.377 2°52.68 8.3317 3.458499 32.71964 5.755298
2010-04-22 08:34:37 51°31.377 2°52.68 8.3277 3.461134 32.746556 5.790122
2010-04-22 08:34:42 51°31.377 2°52.68 8.3256 3.460923 32.745113 5.755298
2010-04-22 08:34:47 51°31.378 2°52.68 8.3266 3.461134 32.748872 5.85977
2010-04-22 08:34:52 51°31.377 2°52.68 8.3251 3.461767 32.75629 5.85977
2010-04-22 08:34:57 51°31.378 2°52.679 8.3309 3.461767 32.75629 5.85977
2010-04-22 08:35:02 51°31.378 2°52.68 8.3288 3.46124 32.752296 6.033891
2010-04-22 08:35:07 51°31.378 2°52.681 8.3281 3.460818 32.748638 6.033891
2010-04-22 08:35:12 51°31.378 2°52.68 8.3276 3.46124 32.753069 5.964243
2010-04-22 08:35:17 51°31.378 2°52.68 8.3258 3.461767 32.757835 6.138363
2010-04-22 08:35:22 51°31.379 2°52.68 8.3249 3.460186 32.741991 6.173187
2010-04-22 08:35:27 51°31.379 2°52.68 8.3275 3.460186 32.741991 6.173187
2010-04-22 08:35:32 51°31.379 2°52.68 8.3261 3.461872 32.76126 6.173187
2010-04-22 08:35:37 51°31.379 2°52.68 8.3295 3.461767 32.758608 6.277659
2010-04-22 08:35:42 51°31.38 2°52.679 8.3274 3.461767 32.757063 6.382131
2010-04-22 08:35:47 51°31.38 2°52.679 8.3253 3.461451 32.755284 6.277659
2010-04-22 08:35:52 51°31.38 2°52.68 8.3312 3.459448 32.734237 6.277659
2010-04-22 08:35:57 51°31.38 2°52.679 8.3315 3.459448 32.734237 6.277659
2010-04-22 08:36:02 51°31.38 2°52.68 8.3275 3.461345 32.754949 6.347307
2010-04-22 08:36:07 51°31.381 2°52.679 8.331 3.460607 32.747194 6.277659
2010-04-22 08:36:12 51°31.381 2°52.679 8.3286 3.462399 32.766027 6.312483
2010-04-22 08:36:17 51°31.381 2°52.679 8.3298 3.462399 32.766027 6.277659
2010-04-22 08:36:22 51°31.381 2°52.679 8.3305 3.462294 32.764147 6.173187
2010-04-22 08:36:27 51°31.381 2°52.679 8.3335 3.462294 32.764147 6.173187
2010-04-22 08:36:32 51°31.382 2°52.679 8.3329 3.459975 32.739776 5.999067
2010-04-22 08:36:37 51°31.382 2°52.679 8.3324 3.460607 32.746422 5.85977
2010-04-22 08:36:42 51°31.382 2°52.679 8.3297 3.460186 32.741219 5.824946
2010-04-22 08:36:47 51°31.382 2°52.678 8.3337 3.459658 32.735681 5.720474
2010-04-22 08:36:52 51°31.382 2°52.679 8.3323 3.458921 32.727927 5.720474
2010-04-22 08:36:57 51°31.383 2°52.677 8.3364 3.458921 32.727927 5.720474
2010-04-22 08:37:02 51°31.382 2°52.678 8.3346 3.45755 32.712757 5.790122
2010-04-22 08:37:07 51°31.383 2°52.677 8.3343 3.457234 32.709435 5.616002
2010-04-22 08:37:12 51°31.382 2°52.677 8.3353 3.456812 32.705005 5.616002
2010-04-22 08:37:17 51°31.383 2°52.677 8.334 3.459237 32.728164 5.650826
2010-04-22 08:37:22 51°31.383 2°52.677 8.3346 3.45871 32.722626 5.581178
2010-04-22 08:37:27 51°31.383 2°52.677 8.3324 3.45871 32.722626 5.581178
2010-04-22 08:37:32 51°31.383 2°52.677 8.3347 3.457972 32.715645 5.650826
2010-04-22 08:37:37 51°31.383 2°52.676 8.3344 3.457761 32.711887 5.650826
2010-04-22 08:37:42 51°31.382 2°52.676 8.3374 3.459764 32.732158 5.441882
2010-04-22 08:37:47 51°31.383 2°52.675 8.3394 3.457866 32.711452 5.407058
2010-04-22 08:37:52 51°31.382 2°52.676 8.3379 3.458393 32.718532 5.441882
2010-04-22 08:37:57 51°31.382 2°52.675 8.3356 3.458393 32.718532 5.441882
2010-04-22 08:38:02 51°31.383 2°52.675 8.339 3.459131 32.726284 5.441882
2010-04-22 08:38:07 51°31.382 2°52.675 8.3415 3.456917 32.702257 5.372234
2010-04-22 08:38:12 51°31.382 2°52.675 8.3392 3.455231 32.685311 5.33741
2010-04-22 08:38:17 51°31.382 2°52.674 8.3394 3.455125 32.682662 5.232937
2010-04-22 08:38:22 51°31.382 2°52.674 8.3396 3.455125 32.681121 5.198113
2010-04-22 08:38:27 51°31.382 2°52.673 8.3404 3.455125 32.681121 5.198113
2010-04-22 08:38:32 51°31.382 2°52.674 8.341 3.45892 32.720213 5.163289
2010-04-22 08:38:37 51°31.382 2°52.673 8.3392 3.458604 32.716891 5.198113
2010-04-22 08:38:42 51°31.382 2°52.673 8.3394 3.458604 32.716119 5.058817
2010-04-22 08:38:47 51°31.382 2°52.673 8.3438 3.458288 32.712797 4.954345
2010-04-22 08:38:52 51°31.382 2°52.673 8.3466 3.458077 32.710583 5.023993
2010-04-22 08:38:57 51°31.382 2°52.673 8.3471 3.458077 32.710583 5.023993
2010-04-22 08:39:02 51°31.382 2°52.673 8.3411 3.457866 32.706826 4.884697
2010-04-22 08:39:07 51°31.381 2°52.672 8.3454 3.457761 32.704177 4.849873
2010-04-22 08:39:12 51°31.381 2°52.672 8.3477 3.45755 32.701963 4.849873
2010-04-22 08:39:17 51°31.381 2°52.672 8.3443 3.45755 32.703505 4.815049
2010-04-22 08:39:22 51°31.381 2°52.671 8.346 3.457444 32.700085 4.884697
2010-04-22 08:39:27 51°31.381 2°52.672 8.3485 3.457444 32.700085 4.884697
2010-04-22 08:39:32 51°31.381 2°52.671 8.351 3.457339 32.697437 4.780225
2010-04-22 08:39:37 51°31.381 2°52.672 8.3511 3.457339 32.698208 4.954345
2010-04-22 08:39:42 51°31.381 2°52.671 8.3431 3.457444 32.698544 4.884697
2010-04-22 08:39:47 51°31.381 2°52.671 8.3411 3.457444 32.698544 4.815049
2010-04-22 08:39:52 51°31.381 2°52.671 8.339 3.45755 32.698881 4.919521
2010-04-22 08:39:57 51°31.381 2°52.671 8.3389 3.45755 32.698881 4.919521
2010-04-22 08:40:02 51°31.381 2°52.67 8.3442 3.457128 32.694452 4.919521
2010-04-22 08:40:07 51°31.381 2°52.671 8.3419 3.457866 32.70066 4.954345
2010-04-22 08:40:12 51°31.381 2°52.671 8.3368 3.457866 32.699119 4.919521
2010-04-22 08:40:17 51°31.381 2°52.67 8.3403 3.457761 32.698012 5.058817
2010-04-22 08:40:22 51°31.381 2°52.67 8.3389 3.457234 32.694018 5.058817
2010-04-22 08:40:27 51°31.381 2°52.67 8.3388 3.457234 32.694018 5.058817
2010-04-22 08:40:32 51°31.381 2°52.671 8.3387 3.457761 32.702636 5.128465
2010-04-22 08:40:37 51°31.381 2°52.67 8.343 3.457761 32.703407 5.093641
2010-04-22 08:40:42 51°31.381 2°52.67 8.3481 3.457972 32.706392 5.093641
2010-04-22 08:40:47 51°31.382 2°52.67 8.3452 3.457972 32.706392 5.198113
2010-04-22 08:40:52 51°31.382 2°52.67 8.3393 3.457972 32.707163 5.198113
2010-04-22 08:40:57 51°31.382 2°52.67 8.3429 3.457972 32.707163 5.198113
2010-04-22 08:41:02 51°31.382 2°52.67 8.3404 3.458077 32.70827 5.33741
2010-04-22 08:41:07 51°31.382 2°52.669 8.3434 3.458393 32.712363 5.198113
2010-04-22 08:41:12 51°31.382 2°52.67 8.3428 3.458077 32.709041 5.232937
2010-04-22 08:41:17 51°31.383 2°52.67 8.3403 3.458077 32.70827 5.232937
2010-04-22 08:41:22 51°31.383 2°52.67 8.3454 3.45871 32.713371 5.198113
2010-04-22 08:41:27 51°31.383 2°52.67 8.3447 3.45871 32.713371 5.198113
2010-04-22 08:41:32 51°31.383 2°52.67 8.3414 3.458288 32.709713 5.198113
2010-04-22 08:41:37 51°31.383 2°52.67 8.3455 3.458288 32.708943 5.163289
2010-04-22 08:41:42 51°31.383 2°52.669 8.3404 3.458815 32.715249 5.128465
2010-04-22 08:41:47 51°31.383 2°52.67 8.3436 3.458077 32.705957 5.198113
2010-04-22 08:41:52 51°31.383 2°52.67 8.3416 3.458182 32.707835 5.163289
2010-04-22 08:41:57 51°31.383 2°52.67 8.342 3.458182 32.707835 5.163289
2010-04-22 08:42:02 51°31.383 2°52.67 8.3445 3.458182 32.708606 5.198113
2010-04-22 08:42:07 51°31.383 2°52.671 8.3394 3.458499 32.711157 5.198113
2010-04-22 08:42:12 51°31.384 2°52.67 8.3416 3.457023 32.694886 5.232937
2010-04-22 08:42:17 51°31.383 2°52.671 8.346 3.457234 32.6971 5.33741
2010-04-22 08:42:22 51°31.384 2°52.671 8.3437 3.458604 32.712264 5.372234
2010-04-22 08:42:27 51°31.383 2°52.671 8.3486 3.458604 32.712264 5.372234
2010-04-22 08:42:32 51°31.384 2°52.67 8.3421 3.455441 32.677511 5.407058
2010-04-22 08:42:37 51°31.383 2°52.671 8.3379 3.457866 32.706056 5.476706
2010-04-22 08:42:42 51°31.383 2°52.671 8.3466 3.456496 32.690121 5.372234
2010-04-22 08:42:47 51°31.383 2°52.671 8.3423 3.457339 32.698978 5.302586
2010-04-22 08:42:52 51°31.383 2°52.671 8.338 3.457128 32.695223 5.372234
2010-04-22 08:42:57 51°31.384 2°52.671 8.3413 3.457128 32.695223 5.372234
2010-04-22 08:43:02 51°31.383 2°52.671 8.3395 3.459342 32.719243 5.33741
2010-04-22 08:43:07 51°31.383 2°52.671 8.341 3.457972 32.70485 5.232937
2010-04-22 08:43:12 51°31.383 2°52.671 8.3408 3.457655 32.701529 5.163289
2010-04-22 08:43:17 51°31.383 2°52.671 8.3455 3.458077 32.706728 5.128465
2010-04-22 08:43:22 51°31.383 2°52.671 8.3401 3.458815 32.713707 5.163289
2010-04-22 08:43:27 51°31.383 2°52.671 8.3449 3.458815 32.713707 5.163289
2010-04-22 08:43:32 51°31.383 2°52.671 8.3429 3.458182 32.709377 5.267761
2010-04-22 08:43:37 51°31.383 2°52.671 8.3443 3.459131 32.718571 5.232937
2010-04-22 08:43:42 51°31.383 2°52.672 8.3453 3.45892 32.717899 5.232937
2010-04-22 08:43:47 51°31.383 2°52.671 8.3447 3.458077 32.70827 5.232937
2010-04-22 08:43:52 51°31.383 2°52.671 8.3393 3.45892 32.716357 5.198113
2010-04-22 08:43:57 51°31.382 2°52.671 8.3397 3.45892 32.716357 5.198113
2010-04-22 08:44:02 51°31.381 2°52.671 8.339 3.459131 32.7178 5.163289
2010-04-22 08:44:07 51°31.381 2°52.67 8.3397 3.459447 32.720351 5.232937
2010-04-22 08:44:12 51°31.38 2°52.669 8.3423 3.458288 32.707401 5.267761
2010-04-22 08:44:17 51°31.379 2°52.669 8.3441 3.459447 32.720351 5.198113
2010-04-22 08:44:22 51°31.378 2°52.668 8.3447 3.459658 32.722565 5.163289
2010-04-22 08:44:27 51°31.378 2°52.667 8.3458 3.459658 32.722565 5.163289
2010-04-22 08:44:32 51°31.376 2°52.667 8.3447 3.459131 32.717029 5.093641
2010-04-22 08:44:37 51°31.376 2°52.665 8.3495 3.457655 32.703841 5.198113
2010-04-22 08:44:42 51°31.374 2°52.665 8.3446 3.45892 32.716357 5.128465
2010-04-22 08:44:47 51°31.373 2°52.663 8.3463 3.458604 32.714577 5.163289
2010-04-22 08:44:52 51°31.372 2°52.663 8.3498 3.459026 32.719006 5.198113
2010-04-22 08:44:57 51°31.371 2°52.662 8.3452 3.459026 32.719006 5.198113
2010-04-22 08:45:02 51°31.37 2°52.661 8.3467 3.458815 32.716021 5.198113
2010-04-22 08:45:07 51°31.368 2°52.659 8.3448 3.459342 32.719243 5.058817
2010-04-22 08:45:12 51°31.367 2°52.659 8.3464 3.457444 32.699315 5.058817
2010-04-22 08:45:17 51°31.366 2°52.657 8.3431 3.458604 32.709951 5.058817
2010-04-22 08:45:22 51°31.365 2°52.656 8.3437 3.459237 32.716594 5.128465
2010-04-22 08:45:27 51°31.363 2°52.656 8.3468 3.459237 32.716594 5.128465
2010-04-22 08:45:32 51°31.362 2°52.655 8.3425 3.458815 32.712166 5.128465
2010-04-22 08:45:37 51°31.361 2°52.654 8.3448 3.459237 32.715823 5.163289
2010-04-22 08:45:42 51°31.36 2°52.653 8.3417 3.459658 32.720252 5.267761
2010-04-22 08:45:47 51°31.359 2°52.652 8.34 3.459975 32.723573 5.441882
2010-04-22 08:45:52 51°31.358 2°52.651 8.3374 3.458604 32.709951 5.441882
2010-04-22 08:45:57 51°31.357 2°52.651 8.3389 3.458604 32.709951 5.441882
2010-04-22 08:46:02 51°31.356 2°52.65 8.34 3.459658 32.721023 5.407058
2010-04-22 08:46:07 51°31.355 2°52.649 8.339 3.459975 32.725887 5.372234
2010-04-22 08:46:12 51°31.355 2°52.648 8.3402 3.460291 32.72998 5.476706
2010-04-22 08:46:17 51°31.354 2°52.648 8.3379 3.459342 32.720014 5.581178
2010-04-22 08:46:22 51°31.353 2°52.647 8.3373 3.458499 32.711928 5.650826
2010-04-22 08:46:27 51°31.352 2°52.646 8.3365 3.458499 32.711928 5.650826
2010-04-22 08:46:32 51°31.351 2°52.646 8.3388 3.46008 32.729308 5.720474
2010-04-22 08:46:37 51°31.35 2°52.646 8.3399 3.459026 32.718235 5.68565
2010-04-22 08:46:42 51°31.35 2°52.644 8.339 3.457972 32.707934 5.68565
2010-04-22 08:46:47 51°31.349 2°52.644 8.3382 3.460185 32.73273 5.824946
2010-04-22 08:46:52 51°31.348 2°52.644 8.3387 3.460502 32.73528 5.755298
2010-04-22 08:46:57 51°31.348 2°52.643 8.3385 3.460502 32.73528 5.755298
2010-04-22 08:47:02 51°31.347 2°52.643 8.3354 3.460396 32.734173 5.790122
2010-04-22 08:47:07 51°31.347 2°52.642 8.3359 3.457761 32.70649 5.755298
2010-04-22 08:47:12 51°31.346 2°52.642 8.3379 3.460502 32.73528 5.68565
2010-04-22 08:47:17 51°31.346 2°52.641 8.3372 3.459553 32.725314 5.790122
2010-04-22 08:47:22 51°31.345 2°52.642 8.3357 3.460607 32.737159 5.85977
2010-04-22 08:47:27 51°31.345 2°52.641 8.337 3.460607 32.737159 5.85977
2010-04-22 08:47:32 51°31.344 2°52.641 8.336 3.457761 32.70649 5.894594
2010-04-22 08:47:37 51°31.344 2°52.641 8.3379 3.45871 32.716456 5.999067
2010-04-22 08:47:42 51°31.344 2°52.641 8.3374 3.457972 32.708705 5.964243
2010-04-22 08:47:47 51°31.344 2°52.64 8.339 3.458499 32.715012 5.894594
2010-04-22 08:47:52 51°31.343 2°52.64 8.3343 3.460502 32.736824 5.894594
2010-04-22 08:47:57 51°31.343 2°52.64 8.339 3.460502 32.736824 5.894594
2010-04-22 08:48:02 51°31.342 2°52.64 8.3378 3.460607 32.738703 6.033891
2010-04-22 08:48:07 51°31.341 2°52.639 8.3389 3.457972 32.708705 5.999067
2010-04-22 08:48:12 51°31.339 2°52.639 8.3368 3.458182 32.712461 5.999067
2010-04-22 08:48:17 51°31.336 2°52.639 8.3345 3.460818 32.739374 6.103539
2010-04-22 08:48:22 51°31.332 2°52.641 8.3376 3.460713 32.737495 6.138363
2010-04-22 08:48:27 51°31.328 2°52.644 8.3399 3.460713 32.737495 6.138363
2010-04-22 08:48:32 51°31.324 2°52.648 8.3396 3.460713 32.737495 5.999067
2010-04-22 08:48:37 51°31.32 2°52.654 8.3389 3.459975 32.731286 5.929418
2010-04-22 08:48:42 51°31.317 2°52.661 8.337 3.459237 32.722763 5.894594
2010-04-22 08:48:47 51°31.314 2°52.67 8.3353 3.459658 32.727964 5.999067
2010-04-22 08:48:52 51°31.311 2°52.68 8.3351 3.459342 32.724642 5.929418
2010-04-22 08:48:57 51°31.31 2°52.69 8.3363 3.459342 32.724642 5.929418
2010-04-22 08:49:02 51°31.309 2°52.702 8.3356 3.461134 32.745784 5.929418
2010-04-22 08:49:07 51°31.309 2°52.716 8.3361 3.459131 32.724741 5.929418
2010-04-22 08:49:12 51°31.311 2°52.73 8.3375 3.459553 32.729171 5.929418
2010-04-22 08:49:17 51°31.312 2°52.746 8.337 3.460396 32.738031 6.068715
2010-04-22 08:49:22 51°31.316 2°52.762 8.333 3.459553 32.729943 6.103539
2010-04-22 08:49:27 51°31.321 2°52.779 8.3319 3.459553 32.729943 6.103539
2010-04-22 08:49:32 51°31.327 2°52.795 8.3373 3.459342 32.729271 6.068715
2010-04-22 08:49:37 51°31.335 2°52.812 8.3351 3.459131 32.727828 6.033891
2010-04-22 08:49:42 51°31.344 2°52.829 8.3341 3.460607 32.744106 5.929418
2010-04-22 08:49:47 51°31.355 2°52.846 8.3362 3.457972 32.714873 5.824946
2010-04-22 08:49:52 51°31.367 2°52.864 8.3366 3.459764 32.733701 5.894594
2010-04-22 08:49:57 51°31.381 2°52.881 8.3383 3.459764 32.733701 5.894594
2010-04-22 08:50:02 51°31.394 2°52.901 8.3406 3.46008 32.737796 5.929418
2010-04-22 08:50:07 51°31.409 2°52.919 8.3475 3.459764 32.734473 5.894594
2010-04-22 08:50:12 51°31.423 2°52.939 8.3481 3.459764 32.734473 5.755298
2010-04-22 08:50:17 51°31.438 2°52.959 8.3563 3.459553 32.733801 5.581178
2010-04-22 08:50:22 51°31.453 2°52.98 8.3634 3.458921 32.727927 5.476706
2010-04-22 08:50:27 51°31.468 2°53.001 8.3484 3.458921 32.727927 5.476706
2010-04-22 08:50:32 51°31.484 2°53.021 8.3522 3.459026 32.725948 5.372234
2010-04-22 08:50:37 51°31.499 2°53.043 8.3501 3.45892 32.723298 5.093641
2010-04-22 08:50:42 51°31.515 2°53.064 8.3534 3.458815 32.719105 4.780225
2010-04-22 08:50:47 51°31.53 2°53.085 8.3427 3.457866 32.705285 4.536456
2010-04-22 08:50:52 51°31.546 2°53.107 8.3478 3.456285 32.686367 4.466808
2010-04-22 08:50:57 51°31.561 2°53.129 8.3426 3.456285 32.686367 4.466808
2010-04-22 08:51:02 51°31.577 2°53.15 8.3517 3.457444 32.693151 4.431984
2010-04-22 08:51:07 51°31.592 2°53.172 8.3402 3.457234 32.690167 4.606104
2010-04-22 08:51:12 51°31.608 2°53.194 8.3428 3.456706 32.685403 4.745401
2010-04-22 08:51:17 51°31.624 2°53.216 8.3509 3.457339 32.692044 4.919521
2010-04-22 08:51:22 51°31.639 2°53.238 8.3426 3.457023 32.688723 5.093641
2010-04-22 08:51:27 51°31.654 2°53.26 8.3479 3.457023 32.688723 5.093641
2010-04-22 08:51:32 51°31.67 2°53.282 8.3405 3.456074 32.680302 5.163289
2010-04-22 08:51:37 51°31.685 2°53.304 8.3459 3.457339 32.694355 5.232937
2010-04-22 08:51:42 51°31.701 2°53.325 8.3442 3.456601 32.685836 5.267761
2010-04-22 08:51:47 51°31.716 2°53.347 8.3443 3.455336 32.673324 5.302586
2010-04-22 08:51:52 51°31.731 2°53.369 8.3435 3.456706 32.688484 5.232937
2010-04-22 08:51:57 51°31.747 2°53.391 8.3448 3.456706 32.688484 5.232937
2010-04-22 08:52:02 51°31.763 2°53.412 8.3433 3.456917 32.689927 5.267761
2010-04-22 08:52:07 51°31.779 2°53.435 8.3322 3.457023 32.692575 5.198113
2010-04-22 08:52:12 51°31.794 2°53.456 8.3329 3.456496 32.68704 5.058817
2010-04-22 08:52:17 51°31.809 2°53.478 8.3442 3.455547 32.677077 4.884697
2010-04-22 08:52:22 51°31.825 2°53.5 8.3385 3.452911 32.650175 4.780225
2010-04-22 08:53:01 51°31.944 2°53.672 8.343 3.45017 32.626782 4.640929
2010-04-22 08:53:06 51°31.96 2°53.694 8.3378 3.450381 32.627458 4.257864
2010-04-22 08:53:11 51°31.975 2°53.716 8.339 3.447113 32.593149 4.04892
2010-04-22 08:53:39 51°32.061 2°53.84 8.3386 3.444056 32.562594 3.735503
2010-04-22 08:53:44 51°32.076 2°53.862 8.3365 3.443634 32.5574 3.700679
2010-04-22 08:53:44 51°32.076 2°53.862 8.3365 3.443634 32.5574 3.700679
2010-04-22 08:53:56 51°32.113 2°53.916 8.3374 3.444056 32.560291 3.665855
2010-04-22 08:54:01 51°32.129 2°53.938 8.3346 3.443107 32.551868 3.735503
2010-04-22 08:54:01 51°32.129 2°53.938 8.3346 3.443107 32.551868 3.735503
2010-04-22 08:54:11 51°32.159 2°53.982 8.333 3.444162 32.564468 3.665855
2010-04-22 08:54:32 51°32.225 2°54.075 8.329 3.4449 32.575285 3.491735
2010-04-22 08:54:37 51°32.24 2°54.098 8.3295 3.443213 32.557578 3.491735
2010-04-22 08:55:05 51°32.327 2°54.222 8.3319 3.441315 32.54303 3.10867
2010-04-22 08:55:25 51°32.388 2°54.311 8.3325 3.440683 32.534855 3.178318
2010-04-22 08:55:30 51°32.404 2°54.333 8.3273 3.444478 32.575466 3.247966
2010-04-22 08:55:35 51°32.419 2°54.356 8.3311 3.445743 32.58798 3.317614
2010-04-22 08:55:40 51°32.434 2°54.378 8.342 3.445427 32.584659 3.352439
2010-04-22 08:55:45 51°32.45 2°54.401 8.3393 3.445427 32.584659 3.352439
2010-04-22 08:55:50 51°32.465 2°54.423 8.3317 3.446481 32.594191 3.422087
2010-04-22 08:55:55 51°32.481 2°54.445 8.3308 3.449854 32.628076 3.456911
2010-04-22 08:56:00 51°32.497 2°54.468 8.3304 3.448378 32.612578 3.491735
2010-04-22 08:56:05 51°32.512 2°54.49 8.3258 3.45017 32.629859 3.526559
2010-04-22 08:56:10 51°32.527 2°54.513 8.3253 3.450487 32.63241 3.665855
2010-04-22 08:56:15 51°32.543 2°54.535 8.3235 3.450487 32.63241 3.665855
2010-04-22 08:56:20 51°32.558 2°54.557 8.3246 3.450698 32.636932 3.805151
2010-04-22 08:56:25 51°32.574 2°54.578 8.324 3.452806 32.662154 3.944447
2010-04-22 08:56:30 51°32.591 2°54.598 8.3256 3.452911 32.661721 4.04892
2010-04-22 08:56:35 51°32.607 2°54.618 8.3264 3.453966 32.673564 4.188216
2010-04-22 08:56:40 51°32.625 2°54.636 8.331 3.454598 32.680978 4.327512
2010-04-22 08:56:45 51°32.642 2°54.654 8.3287 3.454598 32.680978 4.327512
2010-04-22 08:56:50 51°32.66 2°54.671 8.3316 3.455758 32.695472 4.362336
2010-04-22 08:56:55 51°32.677 2°54.688 8.3368 3.457234 32.711749 4.327512
2010-04-22 08:57:00 51°32.695 2°54.705 8.3376 3.454915 32.688154 4.188216
2010-04-22 08:57:05 51°32.713 2°54.721 8.3386 3.457234 32.713291 4.188216
2010-04-22 08:57:10 51°32.731 2°54.737 8.3397 3.45365 32.677175 4.014096
2010-04-22 08:57:15 51°32.75 2°54.753 8.3344 3.45365 32.677175 4.014096
2010-04-22 08:57:20 51°32.768 2°54.768 8.3391 3.455336 32.694125 3.874799
2010-04-22 08:57:25 51°32.786 2°54.785 8.3334 3.453755 32.677512 3.735503
2010-04-22 08:57:30 51°32.805 2°54.8 8.3328 3.452912 32.666342 3.596207
2010-04-22 08:57:35 51°32.823 2°54.815 8.3367 3.453439 32.669568 3.456911
2010-04-22 08:57:40 51°32.841 2°54.831 8.3382 3.452911 32.661721 3.422087
2010-04-22 08:57:45 51°32.86 2°54.846 8.341 3.452911 32.661721 3.422087
2010-04-22 08:57:50 51°32.878 2°54.862 8.3371 3.45249 32.654983 3.422087
2010-04-22 08:57:55 51°32.897 2°54.877 8.351 3.451225 32.640159 3.596207
2010-04-22 08:58:00 51°32.915 2°54.893 8.3466 3.451963 32.647908 3.700679
2010-04-22 08:58:05 51°32.933 2°54.909 8.3428 3.451646 32.646126 3.805151
2010-04-22 08:58:10 51°32.95 2°54.926 8.3537 3.451963 32.649447 3.770327
2010-04-22 08:58:15 51°32.968 2°54.943 8.347 3.451963 32.649447 3.770327
2010-04-22 08:58:20 51°32.986 2°54.96 8.3421 3.452068 32.649015 3.665855
2010-04-22 08:58:25 51°33.003 2°54.977 8.3365 3.451225 32.640928 3.491735
2010-04-22 08:58:30 51°33.021 2°54.994 8.3254 3.450592 32.632748 3.352439
2010-04-22 08:58:35 51°33.038 2°55.012 8.3178 3.451435 32.637757 3.317614
2010-04-22 08:58:40 51°33.056 2°55.028 8.3052 3.450065 32.621831 3.352439
2010-04-22 08:58:45 51°33.073 2°55.046 8.2978 3.450065 32.621831 3.352439
2010-04-22 08:58:50 51°33.09 2°55.063 8.2934 3.450276 32.621738 3.28279
2010-04-22 08:58:55 51°33.107 2°55.081 8.2695 3.451014 32.628716 3.387263
2010-04-22 08:59:00 51°33.124 2°55.098 8.2626 3.452384 32.645411 3.596207
2010-04-22 08:59:05 51°33.141 2°55.115 8.2443 3.453228 32.658883 3.874799
2010-04-22 08:59:10 51°33.158 2°55.133 8.2424 3.456285 32.695613 4.362336
2010-04-22 08:59:15 51°33.175 2°55.151 8.2335 3.456285 32.695613 4.362336
2010-04-22 08:59:20 51°33.192 2°55.168 8.2331 3.457445 32.717049 4.745401
2010-04-22 08:59:25 51°33.209 2°55.186 8.227 3.460713 32.759889 5.198113
2010-04-22 08:59:30 51°33.225 2°55.204 8.2278 3.462505 32.784916 5.824946
2010-04-22 08:59:35 51°33.239 2°55.223 8.2344 3.462505 32.795749 6.382131
2010-04-22 08:59:40 51°33.251 2°55.243 8.2226 3.465036 32.837089 7.078612
2010-04-22 08:59:45 51°33.261 2°55.263 8.233 3.465036 32.837089 7.078612
2010-04-22 08:59:50 51°33.269 2°55.284 8.2044 3.465563 32.853498 7.531325
2010-04-22 08:59:55 51°33.276 2°55.306 8.1981 3.468726 32.896123 7.949214
2010-04-22 08:59:59 51°33.281 2°55.324 8.1956 3.47094 32.928001 8.192982
2010-04-22 09:00:05 51°33.287 2°55.35 8.1979 3.472732 32.951559 8.367102
2010-04-22 09:00:10 51°33.292 2°55.371 8.1998 3.471361 32.939452 8.541223
2010-04-22 09:00:15 51°33.296 2°55.39 8.1986 3.471361 32.939452 8.541223
2010-04-22 09:00:20 51°33.299 2°55.41 8.1989 3.473364 32.961342 8.784991
2010-04-22 09:00:25 51°33.301 2°55.429 8.1937 3.473786 32.966566 9.063583
2010-04-22 09:00:30 51°33.302 2°55.448 8.1873 3.47463 32.982475 9.272528
2010-04-22 09:00:35 51°33.302 2°55.465 8.1858 3.474735 32.994512 9.272528
2010-04-22 09:00:40 51°33.302 2°55.483 8.1881 3.47463 32.998865 9.307352
2010-04-22 09:00:45 51°33.302 2°55.5 8.1913 3.47463 32.998865 9.307352
2010-04-22 09:00:50 51°33.3 2°55.516 8.1914 3.474524 33.00322 9.237704
2010-04-22 09:00:55 51°33.3 2°55.532 8.1927 3.474841 33.008119 9.20288
2010-04-22 09:01:00 51°33.298 2°55.547 8.1975 3.473154 32.991885 9.20288
2010-04-22 09:01:05 51°33.296 2°55.561 8.1927 3.474208 33.006133 9.307352
2010-04-22 09:01:10 51°33.294 2°55.576 8.1981 3.473681 33.002915 9.307352
2010-04-22 09:01:15 51°33.291 2°55.589 8.202 3.473681 33.002915 9.307352
2010-04-22 09:01:20 51°33.289 2°55.602 8.1997 3.4721 32.989352 9.237704
2010-04-22 09:01:25 51°33.284 2°55.613 8.2051 3.471362 32.982346 9.028759
2010-04-22 09:01:30 51°33.281 2°55.625 8.2064 3.471362 32.983127 8.924287
2010-04-22 09:01:35 51°33.277 2°55.635 8.2053 3.469991 32.967884 8.889463
2010-04-22 09:01:40 51°33.274 2°55.644 8.2079 3.470624 32.972216 8.819815
2010-04-22 09:01:45 51°33.27 2°55.653 8.2025 3.470624 32.972216 8.819815
2010-04-22 09:01:50 51°33.267 2°55.661 8.2055 3.470729 32.974109 8.750167
2010-04-22 09:01:55 51°33.263 2°55.668 8.204 3.46957 32.960312 8.680519
2010-04-22 09:02:00 51°33.26 2°55.675 8.2044 3.470518 32.968762 8.541223
2010-04-22 09:02:05 51°33.256 2°55.682 8.2073 3.470097 32.961972 8.471574
2010-04-22 09:02:10 51°33.253 2°55.688 8.2076 3.470308 32.961856 8.401926
2010-04-22 09:02:15 51°33.25 2°55.694 8.2025 3.470308 32.961856 8.401926
2010-04-22 09:02:20 51°33.247 2°55.701 8.2071 3.468937 32.946619 8.26263
2010-04-22 09:02:25 51°33.244 2°55.706 8.2067 3.467672 32.933275 8.26263
2010-04-22 09:02:30 51°33.242 2°55.713 8.2054 3.468726 32.945954 8.158158
2010-04-22 09:02:35 51°33.239 2°55.718 8.2052 3.468199 32.939614 8.053686
2010-04-22 09:02:40 51°33.238 2°55.723 8.2116 3.467883 32.937058 8.018862
2010-04-22 09:02:45 51°33.236 2°55.728 8.2131 3.467883 32.937058 8.018862
2010-04-22 09:02:50 51°33.234 2°55.734 8.2117 3.467039 32.927382 7.984038
2010-04-22 09:02:55 51°33.232 2°55.739 8.2196 3.466829 32.924379 7.844741
2010-04-22 09:03:00 51°33.231 2°55.744 8.2169 3.466091 32.918154 7.775093
2010-04-22 09:03:05 51°33.229 2°55.749 8.2251 3.464615 32.90103 7.740269
2010-04-22 09:03:10 51°33.228 2°55.753 8.2242 3.465669 32.912928 7.566149
2010-04-22 09:03:15 51°33.227 2°55.758 8.2289 3.465669 32.912928 7.566149
2010-04-22 09:03:20 51°33.225 2°55.762 8.2327 3.464931 32.904366 7.322381
2010-04-22 09:03:25 51°33.225 2°55.767 8.2376 3.462085 32.872792 7.113436
2010-04-22 09:03:30 51°33.223 2°55.771 8.2419 3.464088 32.891579 6.939316
2010-04-22 09:03:35 51°33.222 2°55.776 8.2462 3.462717 32.874016 6.765196
2010-04-22 09:03:40 51°33.221 2°55.78 8.2454 3.460714 32.852122 6.6259
2010-04-22 09:03:45 51°33.22 2°55.784 8.2508 3.460714 32.852122 6.6259
2010-04-22 09:03:50 51°33.219 2°55.788 8.2539 3.461768 32.860125 6.382131
2010-04-22 09:03:55 51°33.219 2°55.792 8.2584 3.459871 32.837015 6.033891
2010-04-22 09:04:00 51°33.218 2°55.796 8.2599 3.458922 32.824686 5.85977
2010-04-22 09:04:05 51°33.217 2°55.799 8.2612 3.461346 32.846354 5.616002
2010-04-22 09:04:11 51°33.216 2°55.804 8.265 3.460819 32.835363 5.51153
2010-04-22 09:04:15 51°33.215 2°55.807 8.2637 3.460819 32.835363 5.51153
2010-04-22 09:04:20 51°33.215 2°55.81 8.2606 3.460714 32.830371 5.33741
2010-04-22 09:04:25 51°33.214 2°55.814 8.2643 3.460397 32.825487 5.232937
2010-04-22 09:04:30 51°33.213 2°55.817 8.2752 3.460081 32.817499 5.128465
2010-04-22 09:04:35 51°33.212 2°55.821 8.2682 3.459554 32.807294 4.989169
2010-04-22 09:04:40 51°33.212 2°55.824 8.2688 3.459027 32.800193 4.849873
2010-04-22 09:04:45 51°33.211 2°55.827 8.2767 3.459027 32.800193 4.849873
2010-04-22 09:04:50 51°33.211 2°55.831 8.273 3.458816 32.794098 4.710577
2010-04-22 09:04:55 51°33.21 2°55.834 8.2762 3.4585 32.789218 4.536456
2010-04-22 09:05:00 51°33.21 2°55.838 8.2768 3.45734 32.775461 4.57128
2010-04-22 09:05:05 51°33.209 2°55.841 8.2762 3.45734 32.774687 4.501632
2010-04-22 09:05:10 51°33.209 2°55.844 8.2749 3.456497 32.762712 4.39716
2010-04-22 09:05:15 51°33.208 2°55.847 8.2757 3.456497 32.762712 4.39716
2010-04-22 09:05:20 51°33.208 2°55.85 8.2713 3.456813 32.765267 4.39716
2010-04-22 09:05:25 51°33.208 2°55.853 8.2725 3.456497 32.759617 4.431984
2010-04-22 09:05:30 51°33.208 2°55.855 8.2715 3.456075 32.753631 4.431984
2010-04-22 09:05:35 51°33.208 2°55.859 8.2696 3.455969 32.750201 4.431984
2010-04-22 09:05:40 51°33.207 2°55.861 8.269 3.455969 32.749427 4.501632
2010-04-22 09:05:45 51°33.208 2°55.865 8.2702 3.455969 32.749427 4.501632
2010-04-22 09:05:50 51°33.207 2°55.867 8.2713 3.455548 32.743444 4.501632
2010-04-22 09:05:55 51°33.207 2°55.87 8.2693 3.455758 32.746435 4.640929
2010-04-22 09:05:59 51°33.207 2°55.872 8.2668 3.455548 32.746537 4.675753
2010-04-22 09:06:05 51°33.207 2°55.875 8.2666 3.455442 32.744654 4.745401
2010-04-22 09:06:10 51°33.207 2°55.878 8.2665 3.455337 32.745092 4.815049
2010-04-22 09:06:15 51°33.207 2°55.881 8.2676 3.455337 32.745092 4.815049
2010-04-22 09:06:20 51°33.207 2°55.883 8.2668 3.455548 32.748084 4.884697
2010-04-22 09:06:25 51°33.207 2°55.886 8.2664 3.455969 32.751748 4.815049
2010-04-22 09:06:30 51°33.207 2°55.889 8.2676 3.455653 32.746873 4.954345
2010-04-22 09:06:35 51°33.207 2°55.891 8.2717 3.455442 32.746201 5.023993
2010-04-22 09:06:40 51°33.207 2°55.893 8.2713 3.455969 32.751748 5.023993
2010-04-22 09:06:45 51°33.207 2°55.896 8.2668 3.455969 32.751748 5.023993
2010-04-22 09:06:50 51°33.207 2°55.899 8.2666 3.455969 32.752522 5.128465
2010-04-22 09:06:55 51°33.207 2°55.901 8.2662 3.455548 32.748084 5.128465
2010-04-22 09:07:00 51°33.207 2°55.903 8.2628 3.455969 32.751748 5.058817
2010-04-22 09:07:05 51°33.207 2°55.906 8.2656 3.455759 32.750303 5.128465
2010-04-22 09:07:10 51°33.207 2°55.908 8.2691 3.455653 32.747647 5.163289
2010-04-22 09:07:15 51°33.207 2°55.91 8.2707 3.455653 32.747647 5.163289
2010-04-22 09:07:20 51°33.208 2°55.913 8.2751 3.455442 32.745428 5.267761
2010-04-22 09:07:25 51°33.208 2°55.914 8.2751 3.455653 32.747647 5.302586
2010-04-22 09:07:30 51°33.208 2°55.917 8.2797 3.455969 32.750201 5.267761
2010-04-22 09:07:35 51°33.208 2°55.919 8.2832 3.455548 32.748084 5.267761
2010-04-22 09:07:40 51°33.208 2°55.921 8.2846 3.455759 32.75185 5.163289
2010-04-22 09:07:45 51°33.208 2°55.923 8.2875 3.455759 32.75185 5.163289
2010-04-22 09:07:50 51°33.208 2°55.926 8.2868 3.454915 32.742202 5.128465
2010-04-22 09:07:55 51°33.208 2°55.928 8.2907 3.454704 32.73921 5.163289
2010-04-22 09:08:00 51°33.209 2°55.93 8.2905 3.454388 32.732789 4.849873
2010-04-22 09:08:05 51°33.209 2°55.932 8.2885 3.453545 32.72237 4.710577
2010-04-22 09:08:10 51°33.209 2°55.934 8.2892 3.452807 32.710743 4.710577
2010-04-22 09:08:15 51°33.209 2°55.937 8.2918 3.452807 32.710743 4.710577
2010-04-22 09:08:20 51°33.209 2°55.938 8.2898 3.452385 32.703991 4.606104
2010-04-22 09:08:25 51°33.21 2°55.941 8.2926 3.452174 32.699457 4.57128
2010-04-22 09:08:30 51°33.21 2°55.942 8.2892 3.451331 32.688272 4.501632
2010-04-22 09:08:35 51°33.21 2°55.945 8.2909 3.451436 32.687065 4.362336
2010-04-22 09:08:40 51°33.21 2°55.946 8.2939 3.45112 32.682968 4.501632
2010-04-22 09:08:45 51°33.21 2°55.948 8.2956 3.45112 32.682968 4.501632
2010-04-22 09:08:50 51°33.211 2°55.95 8.2957 3.450276 32.673329 4.466808
2010-04-22 09:08:55 51°33.211 2°55.952 8.2978 3.449855 32.668895 4.536456
2010-04-22 09:09:00 51°33.211 2°55.954 8.2994 3.450487 32.674774 4.536456
2010-04-22 09:09:05 51°33.212 2°55.955 8.3034 3.44996 32.66769 4.501632
2010-04-22 09:09:11 51°33.212 2°55.958 8.3077 3.450487 32.674003 4.431984
2010-04-22 09:09:15 51°33.212 2°55.96 8.3106 3.450487 32.674003 4.431984
2010-04-22 09:09:20 51°33.212 2°55.961 8.3085 3.450698 32.675448 4.39716
2010-04-22 09:09:25 51°33.212 2°55.963 8.3089 3.450171 32.668364 4.362336
2010-04-22 09:09:30 51°33.213 2°55.965 8.3148 3.450382 32.66981 4.22304
2010-04-22 09:09:35 51°33.213 2°55.967 8.3193 3.449644 32.66051 4.118568
2010-04-22 09:09:40 51°33.213 2°55.969 8.3185 3.449538 32.657861 4.083744
2010-04-22 09:09:45 51°33.213 2°55.971 8.3163 3.449538 32.657861 4.083744
2010-04-22 09:09:50 51°33.214 2°55.973 8.3194 3.449011 32.649238 3.909623
2010-04-22 09:09:55 51°33.214 2°55.974 8.3167 3.447852 32.63474 3.735503
2010-04-22 09:10:00 51°33.214 2°55.977 8.3207 3.447852 32.6332 3.770327
2010-04-22 09:10:05 51°33.215 2°55.978 8.3228 3.446903 32.620921 3.700679
2010-04-22 09:10:10 51°33.215 2°55.98 8.3215 3.447324 32.622274 3.631031
2010-04-22 09:10:15 51°33.215 2°55.982 8.3278 3.447324 32.622274 3.631031
2010-04-22 09:10:20 51°33.215 2°55.984 8.331 3.446797 32.614428 3.596207
2010-04-22 09:10:25 51°33.216 2°55.986 8.3281 3.446692 32.611782 3.596207
2010-04-22 09:10:30 51°33.216 2°55.987 8.3324 3.44627 32.606583 3.491735
2010-04-22 09:10:35 51°33.216 2°55.989 8.3385 3.446586 32.608367 3.491735
2010-04-22 09:10:40 51°33.217 2°55.99 8.3413 3.446059 32.602061 3.456911
2010-04-22 09:10:45 51°33.217 2°55.993 8.3417 3.446059 32.602061 3.456911
2010-04-22 09:10:50 51°33.217 2°55.994 8.343 3.445638 32.596095 3.317614
2010-04-22 09:10:55 51°33.218 2°55.996 8.346 3.44258 32.562452 3.247966
2010-04-22 09:11:00 51°33.218 2°55.997 8.3428 3.44511 32.586716 3.213142
2010-04-22 09:11:05 51°33.218 2°56 8.3422 3.444478 32.57777 2.969374
2010-04-22 09:11:11 51°33.219 2°56.001 8.3453 3.443635 32.566611 2.864902
2010-04-22 09:11:15 51°33.219 2°56.003 8.3474 3.443635 32.566611 2.864902
2010-04-22 09:11:20 51°33.219 2°56.004 8.3484 3.443424 32.561327 2.864902
2010-04-22 09:11:25 51°33.219 2°56.006 8.3481 3.443213 32.556044 2.864902
2010-04-22 09:11:30 51°33.22 2°56.008 8.3501 3.442686 32.547442 2.830078
2010-04-22 09:11:35 51°33.22 2°56.01 8.3527 3.442791 32.547014 2.76043
2010-04-22 09:11:40 51°33.22 2°56.011 8.3518 3.442475 32.542928 2.725606
2010-04-22 09:11:45 51°33.221 2°56.013 8.3531 3.442475 32.542928 2.725606
2010-04-22 09:11:50 51°33.221 2°56.015 8.354 3.442475 32.542161 2.795254
2010-04-22 09:11:55 51°33.222 2°56.016 8.3575 3.443213 32.548372 2.795254
2010-04-22 09:12:00 51°33.222 2°56.018 8.3598 3.443002 32.544625 2.690782
2010-04-22 09:12:05 51°33.222 2°56.019 8.3593 3.442369 32.537221 2.690782
2010-04-22 09:12:10 51°33.222 2°56.021 8.3614 3.442158 32.533476 2.655957
2010-04-22 09:12:15 51°33.223 2°56.023 8.3649 3.442158 32.533476 2.655957
2010-04-22 09:12:20 51°33.223 2°56.024 8.367 3.44258 32.5356 2.621133
2010-04-22 09:12:25 51°33.224 2°56.026 8.3676 3.442158 32.529643 2.586309
2010-04-22 09:12:30 51°33.224 2°56.027 8.3691 3.44142 32.521135 2.516661
2010-04-22 09:12:35 51°33.224 2°56.029 8.3713 3.442053 32.527005 2.447013
2010-04-22 09:12:40 51°33.224 2°56.031 8.3752 3.440577 32.508459 2.412189
2010-04-22 09:12:45 51°33.225 2°56.033 8.3769 3.440577 32.508459 2.412189
2010-04-22 09:12:50 51°33.225 2°56.034 8.378 3.440472 32.506588 2.342541
2010-04-22 09:12:55 51°33.225 2°56.036 8.3777 3.440893 32.508714 2.272893
2010-04-22 09:12:59 51°33.226 2°56.037 8.3766 3.440366 32.501654 2.203245
2010-04-22 09:13:05 51°33.226 2°56.039 8.3739 3.437942 32.474698 2.098773
2010-04-22 09:13:10 51°33.226 2°56.04 8.3779 3.437836 32.471298 2.063949
2010-04-22 09:13:15 51°33.227 2°56.042 8.3746 3.437836 32.471298 2.063949
2010-04-22 09:13:20 51°33.227 2°56.043 8.3746 3.44005 32.491451 2.029124
2010-04-22 09:13:25 51°33.228 2°56.045 8.3697 3.438574 32.474448 1.959476
2010-04-22 09:13:30 51°33.228 2°56.046 8.3676 3.43889 32.475469 1.9943
2010-04-22 09:13:35 51°33.228 2°56.047 8.3705 3.438785 32.4736 2.098773
2010-04-22 09:13:40 51°33.229 2°56.049 8.3653 3.438468 32.46952 2.098773
2010-04-22 09:13:45 51°33.229 2°56.05 8.3647 3.438468 32.46952 2.098773
2010-04-22 09:13:50 51°33.23 2°56.051 8.3654 3.438574 32.472154 2.168421
2010-04-22 09:13:55 51°33.23 2°56.053 8.3646 3.439101 32.475386 2.238069
2010-04-22 09:14:00 51°33.23 2°56.054 8.3581 3.439101 32.476151 2.342541
2010-04-22 09:14:05 51°33.231 2°56.055 8.3557 3.439206 32.479549 2.377365
2010-04-22 09:14:10 51°33.231 2°56.057 8.3546 3.439101 32.479974 2.481837
2010-04-22 09:14:15 51°33.232 2°56.058 8.3571 3.439101 32.479974 2.481837
2010-04-22 09:14:20 51°33.232 2°56.06 8.3511 3.439944 32.489581 2.481837
2010-04-22 09:14:25 51°33.233 2°56.061 8.3539 3.441209 32.504375 2.621133
2010-04-22 09:14:30 51°33.233 2°56.062 8.3559 3.442264 32.516961 2.690782
2010-04-22 09:14:35 51°33.234 2°56.063 8.3542 3.44258 32.522575 2.795254
2010-04-22 09:14:40 51°33.234 2°56.065 8.3539 3.443423 32.532952 2.795254
2010-04-22 09:14:45 51°33.234 2°56.066 8.3575 3.443423 32.532952 2.795254
2010-04-22 09:14:50 51°33.235 2°56.067 8.3548 3.443529 32.536357 2.899726
2010-04-22 09:14:55 51°33.235 2°56.069 8.3587 3.443634 32.540528 3.004198
2010-04-22 09:15:00 51°33.236 2°56.07 8.3563 3.44395 32.545379 3.004198
2010-04-22 09:15:05 51°33.236 2°56.071 8.3601 3.444056 32.546485 3.039022
2010-04-22 09:15:10 51°33.236 2°56.073 8.3579 3.444267 32.547931 3.143494
2010-04-22 09:15:15 51°33.237 2°56.074 8.3598 3.444267 32.547931 3.143494
2010-04-22 09:15:20 51°33.237 2°56.076 8.364 3.444583 32.552015 3.143494
2010-04-22 09:15:25 51°33.238 2°56.077 8.3583 3.444688 32.552354 3.178318
2010-04-22 09:15:30 51°33.238 2°56.078 8.356 3.444478 32.550142 3.178318
2010-04-22 09:15:35 51°33.239 2°56.079 8.3527 3.445005 32.554906 3.10867
2010-04-22 09:15:40 51°33.239 2°56.081 8.3523 3.442896 32.533553 3.039022
2010-04-22 09:15:45 51°33.239 2°56.082 8.36 3.442896 32.533553 3.039022
2010-04-22 09:15:50 51°33.24 2°56.083 8.3595 3.442791 32.531681 2.969374
2010-04-22 09:15:55 51°33.24 2°56.085 8.3528 3.443318 32.535678 2.969374
2010-04-22 09:16:00 51°33.241 2°56.086 8.3549 3.443002 32.530828 3.039022
2010-04-22 09:16:05 51°33.241 2°56.087 8.3501 3.443529 32.537123 3.247966
2010-04-22 09:16:10 51°33.241 2°56.089 8.3519 3.445426 32.558563 3.213142
2010-04-22 09:16:15 51°33.242 2°56.09 8.3499 3.445426 32.558563 3.213142
2010-04-22 09:16:20 51°33.242 2°56.091 8.3491 3.445321 32.55899 3.247966
2010-04-22 09:16:25 51°33.242 2°56.092 8.3499 3.444899 32.5538 3.352439
2010-04-22 09:16:30 51°33.241 2°56.094 8.3479 3.445532 32.560436 3.247966
2010-04-22 09:16:35 51°33.241 2°56.096 8.3507 3.445426 32.55933 3.317614
2010-04-22 09:16:40 51°33.24 2°56.098 8.3501 3.445743 32.564182 3.387263
2010-04-22 09:16:45 51°33.239 2°56.1 8.348 3.445743 32.564182 3.387263
2010-04-22 09:16:50 51°33.237 2°56.104 8.3463 3.446059 32.568267 3.526559
2010-04-22 09:16:55 51°33.236 2°56.107 8.3517 3.446059 32.569034 3.561383
2010-04-22 09:17:00 51°33.235 2°56.111 8.3583 3.446375 32.573888 3.561383
2010-04-22 09:17:05 51°33.234 2°56.115 8.354 3.446059 32.571336 3.735503
2010-04-22 09:17:10 51°33.232 2°56.12 8.3505 3.446797 32.57908 3.700679
2010-04-22 09:17:15 51°33.231 2°56.125 8.3528 3.446797 32.57908 3.700679
2010-04-22 09:17:20 51°33.23 2°56.131 8.3508 3.445954 32.570997 3.631031
2010-04-22 09:17:25 51°33.229 2°56.137 8.3498 3.447219 32.585808 3.596207
2010-04-22 09:17:30 51°33.228 2°56.144 8.3469 3.447324 32.586915 3.561383
2010-04-22 09:17:35 51°33.227 2°56.151 8.3465 3.447113 32.582399 3.596207
2010-04-22 09:17:40 51°33.226 2°56.158 8.3426 3.446902 32.580186 3.631031
2010-04-22 09:17:45 51°33.225 2°56.166 8.3364 3.446902 32.580186 3.631031
2010-04-22 09:17:50 51°33.224 2°56.174 8.3384 3.446375 32.573888 3.665855
2010-04-22 09:17:55 51°33.223 2°56.182 8.3396 3.446691 32.577206 3.735503
2010-04-22 09:18:00 51°33.221 2°56.189 8.339 3.44764 32.587162 3.805151
2010-04-22 09:18:05 51°33.221 2°56.197 8.3405 3.446691 32.577974 3.874799
2010-04-22 09:18:11 51°33.22 2°56.206 8.3474 3.446375 32.576957 3.979271
2010-04-22 09:18:15 51°33.22 2°56.212 8.3552 3.446375 32.576957 3.979271
2010-04-22 09:18:20 51°33.22 2°56.219 8.3575 3.447746 32.592876 4.04892
2010-04-22 09:18:25 51°33.219 2°56.226 8.359 3.448905 32.60812 4.118568
2010-04-22 09:18:30 51°33.219 2°56.233 8.3638 3.448273 32.602249 4.014096
2010-04-22 09:18:35 51°33.219 2°56.24 8.3714 3.448695 32.60975 3.909623
2010-04-22 09:18:40 51°33.219 2°56.247 8.377 3.448589 32.609411 3.770327
2010-04-22 09:18:45 51°33.219 2°56.253 8.3822 3.448589 32.609411 3.770327
2010-04-22 09:18:50 51°33.219 2°56.259 8.3853 3.447746 32.599021 3.631031
2010-04-22 09:18:55 51°33.218 2°56.266 8.3884 3.446375 32.580028 3.491735
2010-04-22 09:19:00 51°33.219 2°56.272 8.3932 3.448167 32.595766 3.317614
2010-04-22 09:19:05 51°33.218 2°56.277 8.3969 3.446797 32.577545 3.143494
2010-04-22 09:19:10 51°33.219 2°56.284 8.4028 3.445532 32.561203 2.864902
2010-04-22 09:19:15 51°33.218 2°56.289 8.4067 3.445532 32.561203 2.864902
2010-04-22 09:19:20 51°33.219 2°56.295 8.4102 3.445532 32.556601 2.655957
2010-04-22 09:19:25 51°33.219 2°56.301 8.4132 3.444688 32.540857 2.481837
2010-04-22 09:19:30 51°33.219 2°56.306 8.4158 3.443212 32.520785 2.412189
2010-04-22 09:19:35 51°33.219 2°56.312 8.4171 3.444056 32.525799 2.272893
2010-04-22 09:19:40 51°33.22 2°56.318 8.4172 3.44258 32.504205 2.098773
2010-04-22 09:19:45 51°33.22 2°56.323 8.4207 3.44258 32.504205 2.098773
2010-04-22 09:19:50 51°33.22 2°56.328 8.4247 3.441947 32.494516 1.959476
2010-04-22 09:19:55 51°33.22 2°56.333 8.4237 3.439312 32.462313 1.924652
2010-04-22 09:20:00 51°33.221 2°56.338 8.4252 3.44005 32.465462 1.750532
2010-04-22 09:20:05 51°33.221 2°56.343 8.4262 3.438679 32.446525 1.64606
2010-04-22 09:20:10 51°33.222 2°56.348 8.4272 3.438046 32.436086 1.541588
2010-04-22 09:20:15 51°33.222 2°56.353 8.4269 3.438046 32.436086 1.541588
2010-04-22 09:20:20 51°33.222 2°56.358 8.4318 3.437625 32.430144 1.437116
2010-04-22 09:20:25 51°33.222 2°56.362 8.4323 3.437098 32.4231 1.367467
2010-04-22 09:20:30 51°33.223 2°56.367 8.4308 3.437519 32.424465 1.367467
2010-04-22 09:20:35 51°33.223 2°56.372 8.4326 3.436676 32.414111 1.332643
2010-04-22 09:20:40 51°33.224 2°56.377 8.4344 3.43636 32.408514 1.228171
2010-04-22 09:20:45 51°33.224 2°56.381 8.4377 3.43636 32.408514 1.228171
2010-04-22 09:20:50 51°33.225 2°56.385 8.4389 3.4352 32.394851 1.193347
2010-04-22 09:20:55 51°33.225 2°56.39 8.4427 3.434989 32.391883 1.158523
2010-04-22 09:21:00 51°33.225 2°56.394 8.4406 3.436043 32.400633 1.158523
2010-04-22 09:21:05 51°33.226 2°56.398 8.4404 3.434357 32.381456 1.088875
2010-04-22 09:21:10 51°33.226 2°56.403 8.4452 3.435411 32.39249 1.019227
2010-04-22 09:21:15 51°33.227 2°56.407 8.4421 3.435411 32.39249 1.019227
2010-04-22 09:21:20 51°33.227 2°56.411 8.4433 3.434673 32.382483 1.019227
2010-04-22 09:21:25 51°33.228 2°56.415 8.4426 3.435516 32.389786 0.984403
2010-04-22 09:21:30 51°33.228 2°56.419 8.4453 3.433197 32.362475 1.019227
2010-04-22 09:21:35 51°33.229 2°56.423 8.4514 3.436043 32.392258 0.984403
2010-04-22 09:21:40 51°33.229 2°56.427 8.4491 3.434462 32.37419 0.984403
2010-04-22 09:21:45 51°33.23 2°56.431 8.4493 3.434462 32.37419 0.984403
2010-04-22 09:21:50 51°33.23 2°56.434 8.45 3.433724 32.364948 0.984403
2010-04-22 09:21:55 51°33.231 2°56.438 8.4502 3.435305 32.380731 0.914755
2010-04-22 09:22:00 51°33.231 2°56.442 8.4569 3.433829 32.36453 0.914755
2010-04-22 09:22:05 51°33.232 2°56.446 8.4544 3.433197 32.357912 0.879931
2010-04-22 09:22:10 51°33.232 2°56.449 8.4598 3.435094 32.374722 0.914755
2010-04-22 09:22:15 51°33.233 2°56.453 8.4554 3.435094 32.374722 0.914755
2010-04-22 09:22:20 51°33.233 2°56.456 8.4575 3.435621 32.380236 0.879931
2010-04-22 09:22:25 51°33.234 2°56.46 8.4584 3.435516 32.377612 0.914755
2010-04-22 09:22:30 51°33.234 2°56.463 8.4608 3.435832 32.38016 0.845107
2010-04-22 09:22:35 51°33.235 2°56.466 8.4604 3.436359 32.383392 0.845107
2010-04-22 09:22:40 51°33.235 2°56.469 8.4615 3.436254 32.381529 0.810283
2010-04-22 09:22:45 51°33.236 2°56.473 8.4637 3.436254 32.381529 0.810283
2010-04-22 09:22:50 51°33.236 2°56.476 8.4644 3.434567 32.361606 0.810283
2010-04-22 09:22:55 51°33.237 2°56.479 8.4682 3.434673 32.361188 0.810283
2010-04-22 09:23:00 51°33.237 2°56.483 8.4652 3.434673 32.360428 0.775459
2010-04-22 09:23:05 51°33.238 2°56.486 8.4653 3.434567 32.358566 0.70581
2010-04-22 09:23:10 51°33.238 2°56.489 8.4597 3.434673 32.359668 0.810283
2010-04-22 09:23:15 51°33.238 2°56.492 8.4628 3.434673 32.359668 0.810283
2010-04-22 09:23:20 51°33.239 2°56.495 8.4589 3.434778 32.359251 0.810283
2010-04-22 09:23:25 51°33.24 2°56.498 8.459 3.434673 32.357388 0.775459
2010-04-22 09:23:30 51°33.24 2°56.501 8.4662 3.434778 32.356211 0.775459
2010-04-22 09:23:35 51°33.24 2°56.503 8.4571 3.435938 32.366817 0.810283
2010-04-22 09:23:39 51°33.241 2°56.506 8.452 3.436043 32.367919 0.845107
2010-04-22 09:23:45 51°33.241 2°56.509 8.4519 3.436043 32.367919 0.845107
2010-04-22 09:23:50 51°33.241 2°56.512 8.4497 3.435832 32.366475 0.879931
2010-04-22 09:23:55 51°33.242 2°56.515 8.449 3.436465 32.373089 0.879931
2010-04-22 09:24:00 51°33.242 2°56.517 8.4441 3.436675 32.374533 0.914755
2010-04-22 09:24:05 51°33.243 2°56.52 8.4394 3.436254 32.372404 0.984403
2010-04-22 09:24:10 51°33.243 2°56.523 8.4384 3.435938 32.369857 1.054051
2010-04-22 09:24:15 51°33.243 2°56.526 8.4286 3.435938 32.369857 1.054051
2010-04-22 09:24:20 51°33.244 2°56.528 8.4318 3.43773 32.39012 1.158523
2010-04-22 09:24:25 51°33.244 2°56.531 8.4264 3.437097 32.386547 1.193347
2010-04-22 09:24:30 51°33.244 2°56.533 8.4245 3.437203 32.389932 1.297819
2010-04-22 09:24:35 51°33.244 2°56.535 8.4168 3.4391 32.411304 1.402292
2010-04-22 09:24:40 51°33.245 2°56.538 8.4168 3.438468 32.407732 1.506764
2010-04-22 09:24:45 51°33.245 2°56.541 8.4118 3.438468 32.407732 1.506764
2010-04-22 09:24:50 51°33.246 2°56.543 8.4133 3.439522 32.422569 1.576412
2010-04-22 09:24:55 51°33.246 2°56.546 8.4088 3.440049 32.432657 1.750532
2010-04-22 09:25:00 51°33.246 2°56.548 8.4053 3.44142 32.448525 1.855004
2010-04-22 09:25:05 51°33.247 2°56.55 8.4082 3.441209 32.450894 1.924652
2010-04-22 09:25:10 51°33.247 2°56.553 8.4015 3.442579 32.468293 2.098773